<?xml version="1.0" encoding="UTF-8"?>
<gpx version="1.1" creator="Endomondo.com" xsi:schemaLocation="http://www.topografix.com/GPX/1/1 http://www.topografix.com/GPX/1/1/gpx.xsd http://www.garmin.com/xmlschemas/GpxExtensions/v3 http://www.garmin.com/xmlschemas/GpxExtensionsv3.xsd http://www.garmin.com/xmlschemas/TrackPointExtension/v1 http://www.garmin.com/xmlschemas/TrackPointExtensionv1.xsd" xmlns="http://www.topografix.com/GPX/1/1" xmlns:gpxtpx="http://www.garmin.com/xmlschemas/TrackPointExtension/v1" xmlns:gpxx="http://www.garmin.com/xmlschemas/GpxExtensions/v3" xmlns:xsi="http://www.w3.org/2001/XMLSchema-instance">
  <metadata>
    <author>
      <name>Slava Yonov</name>
      <email id="yonoff" domain="gmail.com"/>
    </author>
    <link href="http://www.endomondo.com">
      <text>Endomondo</text>
    </link>
    <time>2011-02-23T09:08:26Z</time>
    <bounds minlat="32.751939" minlon="35.047122" maxlat="32.745588" maxlon="35.053972"/>
  </metadata>
  <trk>
    <src>http://www.endomondo.com/</src>
    <link href="http://www.endomondo.com/workouts/hB8QoM4_tdE">
      <text>endomondo</text>
    </link>
    <type>MOUNTAIN_BIKING</type>
    <trkseg>
      <trkpt lon="35.047122" lat="32.751939">
        <time>2011-02-22T17:45:47Z</time>
      </trkpt>
      <trkpt lon="35.047122" lat="32.751939">
        <time>2011-02-22T17:45:58Z</time>
      </trkpt>
    </trkseg>
    <trkseg>
      <trkpt lon="35.047122" lat="32.751939">
        <time>2011-02-22T17:49:13Z</time>
      </trkpt>
      <trkpt lon="35.047122" lat="32.751939">
        <ele>374.0</ele>
        <time>2011-02-22T17:49:24Z</time>
      </trkpt>
      <trkpt lon="35.047122" lat="32.751939">
        <time>2011-02-22T17:49:36Z</time>
      </trkpt>
    </trkseg>
    <trkseg>
      <trkpt lon="35.047122" lat="32.751939">
        <time>2011-02-22T17:50:34Z</time>
      </trkpt>
      <trkpt lon="35.047122" lat="32.751939">
        <time>2011-02-22T17:50:46Z</time>
      </trkpt>
    </trkseg>
    <trkseg>
      <trkpt lon="35.047122" lat="32.751939">
        <time>2011-02-22T17:50:51Z</time>
      </trkpt>
      <trkpt lon="35.047272" lat="32.751977">
        <ele>376.0</ele>
        <time>2011-02-22T17:50:54Z</time>
      </trkpt>
      <trkpt lon="35.047342" lat="32.751923">
        <ele>377.0</ele>
        <time>2011-02-22T17:50:57Z</time>
      </trkpt>
      <trkpt lon="35.047497" lat="32.751843">
        <ele>378.0</ele>
        <time>2011-02-22T17:51:03Z</time>
      </trkpt>
      <trkpt lon="35.047588" lat="32.751805">
        <ele>379.0</ele>
        <time>2011-02-22T17:51:06Z</time>
      </trkpt>
      <trkpt lon="35.04776" lat="32.751741">
        <ele>380.0</ele>
        <time>2011-02-22T17:51:11Z</time>
      </trkpt>
      <trkpt lon="35.047862" lat="32.751709">
        <ele>380.0</ele>
        <time>2011-02-22T17:51:14Z</time>
      </trkpt>
      <trkpt lon="35.047958" lat="32.751676">
        <ele>381.0</ele>
        <time>2011-02-22T17:51:17Z</time>
      </trkpt>
      <trkpt lon="35.048157" lat="32.751617">
        <ele>383.0</ele>
        <time>2011-02-22T17:51:23Z</time>
      </trkpt>
      <trkpt lon="35.048259" lat="32.751607">
        <ele>383.0</ele>
        <time>2011-02-22T17:51:26Z</time>
      </trkpt>
      <trkpt lon="35.048366" lat="32.751601">
        <ele>383.0</ele>
        <time>2011-02-22T17:51:29Z</time>
      </trkpt>
      <trkpt lon="35.048549" lat="32.75151">
        <ele>385.0</ele>
        <time>2011-02-22T17:51:35Z</time>
      </trkpt>
      <trkpt lon="35.048651" lat="32.751467">
        <ele>386.0</ele>
        <time>2011-02-22T17:51:38Z</time>
      </trkpt>
      <trkpt lon="35.048752" lat="32.751435">
        <ele>387.0</ele>
        <time>2011-02-22T17:51:42Z</time>
      </trkpt>
      <trkpt lon="35.048924" lat="32.751371">
        <ele>388.0</ele>
        <time>2011-02-22T17:51:46Z</time>
      </trkpt>
      <trkpt lon="35.049096" lat="32.751312">
        <ele>389.0</ele>
        <time>2011-02-22T17:51:51Z</time>
      </trkpt>
      <trkpt lon="35.049171" lat="32.751285">
        <ele>390.0</ele>
        <time>2011-02-22T17:51:53Z</time>
      </trkpt>
      <trkpt lon="35.049369" lat="32.751226">
        <ele>390.0</ele>
        <time>2011-02-22T17:51:59Z</time>
      </trkpt>
      <trkpt lon="35.049444" lat="32.751204">
        <ele>391.0</ele>
        <time>2011-02-22T17:52:01Z</time>
      </trkpt>
      <trkpt lon="35.049648" lat="32.751135">
        <ele>391.0</ele>
        <time>2011-02-22T17:52:07Z</time>
      </trkpt>
      <trkpt lon="35.049756" lat="32.751102">
        <ele>392.0</ele>
        <time>2011-02-22T17:52:10Z</time>
      </trkpt>
      <trkpt lon="35.049852" lat="32.751076">
        <ele>393.0</ele>
        <time>2011-02-22T17:52:13Z</time>
      </trkpt>
      <trkpt lon="35.050035" lat="32.751011">
        <ele>393.0</ele>
        <time>2011-02-22T17:52:19Z</time>
      </trkpt>
      <trkpt lon="35.050131" lat="32.750984">
        <ele>394.0</ele>
        <time>2011-02-22T17:52:22Z</time>
      </trkpt>
      <trkpt lon="35.050233" lat="32.750952">
        <ele>394.0</ele>
        <time>2011-02-22T17:52:25Z</time>
      </trkpt>
      <trkpt lon="35.050426" lat="32.750931">
        <ele>394.0</ele>
        <time>2011-02-22T17:52:31Z</time>
      </trkpt>
      <trkpt lon="35.050528" lat="32.750904">
        <ele>395.0</ele>
        <time>2011-02-22T17:52:34Z</time>
      </trkpt>
      <trkpt lon="35.0507" lat="32.750845">
        <ele>395.0</ele>
        <time>2011-02-22T17:52:39Z</time>
      </trkpt>
      <trkpt lon="35.050802" lat="32.750807">
        <ele>395.0</ele>
        <time>2011-02-22T17:52:42Z</time>
      </trkpt>
      <trkpt lon="35.050989" lat="32.750743">
        <ele>396.0</ele>
        <time>2011-02-22T17:52:47Z</time>
      </trkpt>
      <trkpt lon="35.051097" lat="32.750711">
        <ele>396.0</ele>
        <time>2011-02-22T17:52:50Z</time>
      </trkpt>
      <trkpt lon="35.051199" lat="32.750673">
        <ele>397.0</ele>
        <time>2011-02-22T17:52:53Z</time>
      </trkpt>
      <trkpt lon="35.051392" lat="32.750609">
        <ele>398.0</ele>
        <time>2011-02-22T17:52:59Z</time>
      </trkpt>
      <trkpt lon="35.051483" lat="32.750577">
        <ele>398.0</ele>
        <time>2011-02-22T17:53:02Z</time>
      </trkpt>
      <trkpt lon="35.051585" lat="32.750545">
        <ele>399.0</ele>
        <time>2011-02-22T17:53:05Z</time>
      </trkpt>
      <trkpt lon="35.051757" lat="32.750491">
        <ele>399.0</ele>
        <time>2011-02-22T17:53:11Z</time>
      </trkpt>
      <trkpt lon="35.051858" lat="32.750459">
        <ele>399.0</ele>
        <time>2011-02-22T17:53:14Z</time>
      </trkpt>
      <trkpt lon="35.052035" lat="32.7504">
        <ele>400.0</ele>
        <time>2011-02-22T17:53:19Z</time>
      </trkpt>
      <trkpt lon="35.05218" lat="32.750351">
        <ele>400.0</ele>
        <time>2011-02-22T17:53:23Z</time>
      </trkpt>
      <trkpt lon="35.052631" lat="32.750207">
        <ele>400.0</ele>
        <time>2011-02-22T17:53:35Z</time>
      </trkpt>
      <trkpt lon="35.05277" lat="32.750142">
        <ele>401.0</ele>
        <time>2011-02-22T17:53:39Z</time>
      </trkpt>
      <trkpt lon="35.052867" lat="32.750099">
        <ele>401.0</ele>
        <time>2011-02-22T17:53:42Z</time>
      </trkpt>
      <trkpt lon="35.052996" lat="32.750035">
        <ele>402.0</ele>
        <time>2011-02-22T17:53:46Z</time>
      </trkpt>
      <trkpt lon="35.05313" lat="32.749971">
        <ele>402.0</ele>
        <time>2011-02-22T17:53:50Z</time>
      </trkpt>
      <trkpt lon="35.053216" lat="32.749912">
        <ele>402.0</ele>
        <time>2011-02-22T17:53:53Z</time>
      </trkpt>
      <trkpt lon="35.053398" lat="32.749799">
        <ele>403.0</ele>
        <time>2011-02-22T17:53:59Z</time>
      </trkpt>
      <trkpt lon="35.053516" lat="32.749702">
        <ele>403.0</ele>
        <time>2011-02-22T17:54:03Z</time>
      </trkpt>
      <trkpt lon="35.053596" lat="32.749638">
        <ele>403.0</ele>
        <time>2011-02-22T17:54:06Z</time>
      </trkpt>
      <trkpt lon="35.053731" lat="32.749541">
        <ele>404.0</ele>
        <time>2011-02-22T17:54:10Z</time>
      </trkpt>
      <trkpt lon="35.053865" lat="32.749434">
        <ele>404.0</ele>
        <time>2011-02-22T17:54:14Z</time>
      </trkpt>
      <trkpt lon="35.053999" lat="32.749332">
        <ele>404.0</ele>
        <time>2011-02-22T17:54:18Z</time>
      </trkpt>
      <trkpt lon="35.054138" lat="32.74923">
        <ele>405.0</ele>
        <time>2011-02-22T17:54:23Z</time>
      </trkpt>
      <trkpt lon="35.054272" lat="32.749144">
        <ele>405.0</ele>
        <time>2011-02-22T17:54:26Z</time>
      </trkpt>
      <trkpt lon="35.054396" lat="32.749043">
        <ele>405.0</ele>
        <time>2011-02-22T17:54:30Z</time>
      </trkpt>
      <trkpt lon="35.054519" lat="32.748935">
        <ele>406.0</ele>
        <time>2011-02-22T17:54:34Z</time>
      </trkpt>
      <trkpt lon="35.054626" lat="32.748833">
        <ele>406.0</ele>
        <time>2011-02-22T17:54:38Z</time>
      </trkpt>
      <trkpt lon="35.054734" lat="32.748721">
        <ele>406.0</ele>
        <time>2011-02-22T17:54:42Z</time>
      </trkpt>
      <trkpt lon="35.054846" lat="32.748597">
        <ele>407.0</ele>
        <time>2011-02-22T17:54:46Z</time>
      </trkpt>
      <trkpt lon="35.054948" lat="32.748479">
        <ele>407.0</ele>
        <time>2011-02-22T17:54:50Z</time>
      </trkpt>
      <trkpt lon="35.05505" lat="32.748329">
        <ele>408.0</ele>
        <time>2011-02-22T17:54:55Z</time>
      </trkpt>
      <trkpt lon="35.055152" lat="32.748206">
        <ele>408.0</ele>
        <time>2011-02-22T17:54:59Z</time>
      </trkpt>
      <trkpt lon="35.055265" lat="32.748082">
        <ele>408.0</ele>
        <time>2011-02-22T17:55:03Z</time>
      </trkpt>
      <trkpt lon="35.055383" lat="32.747954">
        <ele>407.0</ele>
        <time>2011-02-22T17:55:07Z</time>
      </trkpt>
      <trkpt lon="35.055501" lat="32.747819">
        <ele>407.0</ele>
        <time>2011-02-22T17:55:11Z</time>
      </trkpt>
      <trkpt lon="35.05563" lat="32.747664">
        <ele>405.0</ele>
        <time>2011-02-22T17:55:15Z</time>
      </trkpt>
      <trkpt lon="35.055726" lat="32.747487">
        <ele>405.0</ele>
        <time>2011-02-22T17:55:19Z</time>
      </trkpt>
      <trkpt lon="35.055807" lat="32.747315">
        <ele>405.0</ele>
        <time>2011-02-22T17:55:23Z</time>
      </trkpt>
      <trkpt lon="35.055887" lat="32.747138">
        <ele>404.0</ele>
        <time>2011-02-22T17:55:27Z</time>
      </trkpt>
      <trkpt lon="35.055957" lat="32.746972">
        <ele>404.0</ele>
        <time>2011-02-22T17:55:31Z</time>
      </trkpt>
      <trkpt lon="35.056027" lat="32.746806">
        <ele>404.0</ele>
        <time>2011-02-22T17:55:35Z</time>
      </trkpt>
      <trkpt lon="35.056064" lat="32.746629">
        <ele>405.0</ele>
        <time>2011-02-22T17:55:39Z</time>
      </trkpt>
      <trkpt lon="35.056086" lat="32.746462">
        <ele>404.0</ele>
        <time>2011-02-22T17:55:43Z</time>
      </trkpt>
      <trkpt lon="35.05608" lat="32.746317">
        <ele>404.0</ele>
        <time>2011-02-22T17:55:47Z</time>
      </trkpt>
      <trkpt lon="35.056048" lat="32.746173">
        <ele>404.0</ele>
        <time>2011-02-22T17:55:51Z</time>
      </trkpt>
      <trkpt lon="35.056032" lat="32.746044">
        <ele>405.0</ele>
        <time>2011-02-22T17:55:55Z</time>
      </trkpt>
      <trkpt lon="35.056075" lat="32.74591">
        <ele>406.0</ele>
        <time>2011-02-22T17:55:59Z</time>
      </trkpt>
      <trkpt lon="35.056166" lat="32.745797">
        <ele>406.0</ele>
        <time>2011-02-22T17:56:03Z</time>
      </trkpt>
      <trkpt lon="35.056273" lat="32.745663">
        <ele>407.0</ele>
        <time>2011-02-22T17:56:07Z</time>
      </trkpt>
      <trkpt lon="35.056365" lat="32.745529">
        <ele>407.0</ele>
        <time>2011-02-22T17:56:11Z</time>
      </trkpt>
      <trkpt lon="35.056456" lat="32.745416">
        <ele>406.0</ele>
        <time>2011-02-22T17:56:15Z</time>
      </trkpt>
      <trkpt lon="35.056563" lat="32.745271">
        <ele>405.0</ele>
        <time>2011-02-22T17:56:19Z</time>
      </trkpt>
      <trkpt lon="35.056724" lat="32.745089">
        <ele>404.0</ele>
        <time>2011-02-22T17:56:23Z</time>
      </trkpt>
      <trkpt lon="35.056901" lat="32.74488">
        <ele>402.0</ele>
        <time>2011-02-22T17:56:27Z</time>
      </trkpt>
      <trkpt lon="35.057094" lat="32.744676">
        <ele>402.0</ele>
        <time>2011-02-22T17:56:31Z</time>
      </trkpt>
      <trkpt lon="35.057266" lat="32.744536">
        <ele>402.0</ele>
        <time>2011-02-22T17:56:34Z</time>
      </trkpt>
      <trkpt lon="35.057454" lat="32.744365">
        <ele>402.0</ele>
        <time>2011-02-22T17:56:38Z</time>
      </trkpt>
      <trkpt lon="35.057625" lat="32.744209">
        <ele>402.0</ele>
        <time>2011-02-22T17:56:42Z</time>
      </trkpt>
      <trkpt lon="35.057786" lat="32.744054">
        <ele>403.0</ele>
        <time>2011-02-22T17:56:46Z</time>
      </trkpt>
      <trkpt lon="35.057926" lat="32.743898">
        <ele>402.0</ele>
        <time>2011-02-22T17:56:50Z</time>
      </trkpt>
      <trkpt lon="35.058087" lat="32.743737">
        <ele>402.0</ele>
        <time>2011-02-22T17:56:54Z</time>
      </trkpt>
      <trkpt lon="35.058253" lat="32.743576">
        <ele>400.0</ele>
        <time>2011-02-22T17:56:58Z</time>
      </trkpt>
      <trkpt lon="35.058408" lat="32.743421">
        <ele>400.0</ele>
        <time>2011-02-22T17:57:02Z</time>
      </trkpt>
      <trkpt lon="35.05858" lat="32.743265">
        <ele>399.0</ele>
        <time>2011-02-22T17:57:06Z</time>
      </trkpt>
      <trkpt lon="35.05872" lat="32.743088">
        <ele>398.0</ele>
        <time>2011-02-22T17:57:10Z</time>
      </trkpt>
      <trkpt lon="35.05887" lat="32.742911">
        <ele>397.0</ele>
        <time>2011-02-22T17:57:14Z</time>
      </trkpt>
      <trkpt lon="35.059047" lat="32.742739">
        <ele>397.0</ele>
        <time>2011-02-22T17:57:18Z</time>
      </trkpt>
      <trkpt lon="35.059229" lat="32.742573">
        <ele>396.0</ele>
        <time>2011-02-22T17:57:22Z</time>
      </trkpt>
      <trkpt lon="35.059379" lat="32.742391">
        <ele>396.0</ele>
        <time>2011-02-22T17:57:26Z</time>
      </trkpt>
      <trkpt lon="35.059551" lat="32.742208">
        <ele>394.0</ele>
        <time>2011-02-22T17:57:30Z</time>
      </trkpt>
      <trkpt lon="35.059696" lat="32.74202">
        <ele>393.0</ele>
        <time>2011-02-22T17:57:34Z</time>
      </trkpt>
      <trkpt lon="35.059707" lat="32.741779">
        <ele>392.0</ele>
        <time>2011-02-22T17:57:38Z</time>
      </trkpt>
      <trkpt lon="35.059653" lat="32.741538">
        <ele>390.0</ele>
        <time>2011-02-22T17:57:42Z</time>
      </trkpt>
      <trkpt lon="35.059476" lat="32.741323">
        <ele>390.0</ele>
        <time>2011-02-22T17:57:46Z</time>
      </trkpt>
      <trkpt lon="35.059213" lat="32.741103">
        <ele>389.0</ele>
        <time>2011-02-22T17:57:51Z</time>
      </trkpt>
      <trkpt lon="35.059133" lat="32.74091">
        <ele>389.0</ele>
        <time>2011-02-22T17:57:55Z</time>
      </trkpt>
      <trkpt lon="35.059084" lat="32.740706">
        <ele>389.0</ele>
        <time>2011-02-22T17:57:59Z</time>
      </trkpt>
      <trkpt lon="35.058934" lat="32.740529">
        <ele>388.0</ele>
        <time>2011-02-22T17:58:03Z</time>
      </trkpt>
      <trkpt lon="35.058848" lat="32.740331">
        <ele>388.0</ele>
        <time>2011-02-22T17:58:08Z</time>
      </trkpt>
      <trkpt lon="35.058977" lat="32.740229">
        <ele>389.0</ele>
        <time>2011-02-22T17:58:11Z</time>
      </trkpt>
      <trkpt lon="35.059181" lat="32.740164">
        <ele>389.0</ele>
        <time>2011-02-22T17:58:15Z</time>
      </trkpt>
      <trkpt lon="35.059412" lat="32.740036">
        <ele>388.0</ele>
        <time>2011-02-22T17:58:19Z</time>
      </trkpt>
      <trkpt lon="35.059578" lat="32.739853">
        <ele>388.0</ele>
        <time>2011-02-22T17:58:23Z</time>
      </trkpt>
      <trkpt lon="35.059664" lat="32.739628">
        <ele>387.0</ele>
        <time>2011-02-22T17:58:27Z</time>
      </trkpt>
      <trkpt lon="35.059653" lat="32.739397">
        <ele>386.0</ele>
        <time>2011-02-22T17:58:31Z</time>
      </trkpt>
      <trkpt lon="35.059535" lat="32.739156">
        <ele>385.0</ele>
        <time>2011-02-22T17:58:35Z</time>
      </trkpt>
      <trkpt lon="35.059444" lat="32.738979">
        <ele>386.0</ele>
        <time>2011-02-22T17:58:38Z</time>
      </trkpt>
      <trkpt lon="35.059353" lat="32.73877">
        <ele>387.0</ele>
        <time>2011-02-22T17:58:42Z</time>
      </trkpt>
      <trkpt lon="35.059315" lat="32.738577">
        <ele>387.0</ele>
        <time>2011-02-22T17:58:46Z</time>
      </trkpt>
      <trkpt lon="35.05932" lat="32.738389">
        <ele>386.0</ele>
        <time>2011-02-22T17:58:50Z</time>
      </trkpt>
      <trkpt lon="35.059449" lat="32.738239">
        <ele>387.0</ele>
        <time>2011-02-22T17:58:54Z</time>
      </trkpt>
      <trkpt lon="35.059589" lat="32.738104">
        <ele>388.0</ele>
        <time>2011-02-22T17:58:58Z</time>
      </trkpt>
      <trkpt lon="35.059701" lat="32.737976">
        <ele>389.0</ele>
        <time>2011-02-22T17:59:02Z</time>
      </trkpt>
      <trkpt lon="35.05983" lat="32.737831">
        <ele>390.0</ele>
        <time>2011-02-22T17:59:06Z</time>
      </trkpt>
      <trkpt lon="35.059964" lat="32.737697">
        <ele>390.0</ele>
        <time>2011-02-22T17:59:10Z</time>
      </trkpt>
      <trkpt lon="35.060093" lat="32.737557">
        <ele>391.0</ele>
        <time>2011-02-22T17:59:14Z</time>
      </trkpt>
      <trkpt lon="35.060227" lat="32.737418">
        <ele>391.0</ele>
        <time>2011-02-22T17:59:18Z</time>
      </trkpt>
      <trkpt lon="35.060399" lat="32.737278">
        <ele>391.0</ele>
        <time>2011-02-22T17:59:23Z</time>
      </trkpt>
      <trkpt lon="35.060533" lat="32.737101">
        <ele>391.0</ele>
        <time>2011-02-22T17:59:26Z</time>
      </trkpt>
      <trkpt lon="35.06064" lat="32.736897">
        <ele>390.0</ele>
        <time>2011-02-22T17:59:30Z</time>
      </trkpt>
      <trkpt lon="35.060737" lat="32.736661">
        <ele>389.0</ele>
        <time>2011-02-22T17:59:34Z</time>
      </trkpt>
      <trkpt lon="35.060758" lat="32.736318">
        <ele>386.0</ele>
        <time>2011-02-22T17:59:39Z</time>
      </trkpt>
      <trkpt lon="35.060661" lat="32.736045">
        <ele>385.0</ele>
        <time>2011-02-22T17:59:43Z</time>
      </trkpt>
      <trkpt lon="35.060474" lat="32.735825">
        <ele>385.0</ele>
        <time>2011-02-22T17:59:47Z</time>
      </trkpt>
      <trkpt lon="35.060195" lat="32.735669">
        <ele>383.0</ele>
        <time>2011-02-22T17:59:51Z</time>
      </trkpt>
      <trkpt lon="35.059948" lat="32.735626">
        <ele>382.0</ele>
        <time>2011-02-22T17:59:54Z</time>
      </trkpt>
      <trkpt lon="35.059712" lat="32.735621">
        <ele>381.0</ele>
        <time>2011-02-22T17:59:58Z</time>
      </trkpt>
      <trkpt lon="35.059712" lat="32.735449">
        <ele>379.0</ele>
        <time>2011-02-22T18:00:03Z</time>
      </trkpt>
      <trkpt lon="35.059851" lat="32.735299">
        <ele>379.0</ele>
        <time>2011-02-22T18:00:07Z</time>
      </trkpt>
      <trkpt lon="35.059953" lat="32.735181">
        <ele>380.0</ele>
        <time>2011-02-22T18:00:11Z</time>
      </trkpt>
      <trkpt lon="35.060007" lat="32.7351">
        <ele>381.0</ele>
        <time>2011-02-22T18:00:14Z</time>
      </trkpt>
      <trkpt lon="35.060055" lat="32.734945">
        <ele>381.0</ele>
        <time>2011-02-22T18:00:19Z</time>
      </trkpt>
      <trkpt lon="35.060061" lat="32.734859">
        <ele>382.0</ele>
        <time>2011-02-22T18:00:22Z</time>
      </trkpt>
      <trkpt lon="35.06005" lat="32.734768">
        <ele>382.0</ele>
        <time>2011-02-22T18:00:25Z</time>
      </trkpt>
      <trkpt lon="35.060082" lat="32.734596">
        <ele>383.0</ele>
        <time>2011-02-22T18:00:31Z</time>
      </trkpt>
      <trkpt lon="35.060071" lat="32.734457">
        <ele>383.0</ele>
        <time>2011-02-22T18:00:35Z</time>
      </trkpt>
      <trkpt lon="35.06005" lat="32.734312">
        <ele>383.0</ele>
        <time>2011-02-22T18:00:39Z</time>
      </trkpt>
      <trkpt lon="35.060012" lat="32.734156">
        <ele>384.0</ele>
        <time>2011-02-22T18:00:43Z</time>
      </trkpt>
      <trkpt lon="35.059937" lat="32.734017">
        <ele>384.0</ele>
        <time>2011-02-22T18:00:47Z</time>
      </trkpt>
      <trkpt lon="35.059819" lat="32.73392">
        <ele>385.0</ele>
        <time>2011-02-22T18:00:51Z</time>
      </trkpt>
      <trkpt lon="35.059664" lat="32.73384">
        <ele>384.0</ele>
        <time>2011-02-22T18:00:55Z</time>
      </trkpt>
      <trkpt lon="35.059524" lat="32.733722">
        <ele>384.0</ele>
        <time>2011-02-22T18:00:59Z</time>
      </trkpt>
      <trkpt lon="35.059594" lat="32.733566">
        <ele>383.0</ele>
        <time>2011-02-22T18:01:02Z</time>
      </trkpt>
      <trkpt lon="35.059819" lat="32.733475">
        <ele>386.0</ele>
        <time>2011-02-22T18:01:07Z</time>
      </trkpt>
      <trkpt lon="35.0599" lat="32.733443">
        <ele>387.0</ele>
        <time>2011-02-22T18:01:09Z</time>
      </trkpt>
      <trkpt lon="35.060055" lat="32.733346">
        <ele>389.0</ele>
        <time>2011-02-22T18:01:15Z</time>
      </trkpt>
      <trkpt lon="35.060146" lat="32.733293">
        <ele>390.0</ele>
        <time>2011-02-22T18:01:18Z</time>
      </trkpt>
      <trkpt lon="35.060281" lat="32.733228">
        <ele>390.0</ele>
        <time>2011-02-22T18:01:22Z</time>
      </trkpt>
      <trkpt lon="35.060388" lat="32.73325">
        <ele>391.0</ele>
        <time>2011-02-22T18:01:25Z</time>
      </trkpt>
      <trkpt lon="35.060543" lat="32.733271">
        <ele>392.0</ele>
        <time>2011-02-22T18:01:31Z</time>
      </trkpt>
      <trkpt lon="35.060629" lat="32.733271">
        <ele>393.0</ele>
        <time>2011-02-22T18:01:34Z</time>
      </trkpt>
      <trkpt lon="35.06071" lat="32.733282">
        <ele>394.0</ele>
        <time>2011-02-22T18:01:37Z</time>
      </trkpt>
      <trkpt lon="35.060865" lat="32.733276">
        <ele>395.0</ele>
        <time>2011-02-22T18:01:43Z</time>
      </trkpt>
      <trkpt lon="35.060946" lat="32.733271">
        <ele>396.0</ele>
        <time>2011-02-22T18:01:46Z</time>
      </trkpt>
      <trkpt lon="35.061026" lat="32.73326">
        <ele>396.0</ele>
        <time>2011-02-22T18:01:49Z</time>
      </trkpt>
      <trkpt lon="35.061182" lat="32.733207">
        <ele>397.0</ele>
        <time>2011-02-22T18:01:55Z</time>
      </trkpt>
      <trkpt lon="35.061262" lat="32.73318">
        <ele>397.0</ele>
        <time>2011-02-22T18:01:58Z</time>
      </trkpt>
      <trkpt lon="35.061348" lat="32.733137">
        <ele>397.0</ele>
        <time>2011-02-22T18:02:01Z</time>
      </trkpt>
      <trkpt lon="35.061488" lat="32.733024">
        <ele>397.0</ele>
        <time>2011-02-22T18:02:07Z</time>
      </trkpt>
      <trkpt lon="35.061541" lat="32.73296">
        <ele>397.0</ele>
        <time>2011-02-22T18:02:10Z</time>
      </trkpt>
      <trkpt lon="35.061584" lat="32.732885">
        <ele>398.0</ele>
        <time>2011-02-22T18:02:13Z</time>
      </trkpt>
      <trkpt lon="35.061606" lat="32.732815">
        <ele>398.0</ele>
        <time>2011-02-22T18:02:16Z</time>
      </trkpt>
      <trkpt lon="35.061611" lat="32.73267">
        <ele>398.0</ele>
        <time>2011-02-22T18:02:23Z</time>
      </trkpt>
      <trkpt lon="35.0616" lat="32.732601">
        <ele>398.0</ele>
        <time>2011-02-22T18:02:26Z</time>
      </trkpt>
      <trkpt lon="35.061579" lat="32.732525">
        <ele>398.0</ele>
        <time>2011-02-22T18:02:29Z</time>
      </trkpt>
      <trkpt lon="35.061504" lat="32.732391">
        <ele>399.0</ele>
        <time>2011-02-22T18:02:35Z</time>
      </trkpt>
      <trkpt lon="35.061466" lat="32.732322">
        <ele>400.0</ele>
        <time>2011-02-22T18:02:38Z</time>
      </trkpt>
      <trkpt lon="35.061439" lat="32.732247">
        <ele>400.0</ele>
        <time>2011-02-22T18:02:41Z</time>
      </trkpt>
      <trkpt lon="35.061386" lat="32.732129">
        <ele>402.0</ele>
        <time>2011-02-22T18:02:47Z</time>
      </trkpt>
      <trkpt lon="35.061353" lat="32.732064">
        <ele>402.0</ele>
        <time>2011-02-22T18:02:50Z</time>
      </trkpt>
      <trkpt lon="35.061327" lat="32.732005">
        <ele>403.0</ele>
        <time>2011-02-22T18:02:53Z</time>
      </trkpt>
      <trkpt lon="35.061268" lat="32.731871">
        <ele>403.0</ele>
        <time>2011-02-22T18:02:59Z</time>
      </trkpt>
      <trkpt lon="35.061235" lat="32.731801">
        <ele>404.0</ele>
        <time>2011-02-22T18:03:02Z</time>
      </trkpt>
      <trkpt lon="35.061203" lat="32.731732">
        <ele>404.0</ele>
        <time>2011-02-22T18:03:05Z</time>
      </trkpt>
      <trkpt lon="35.061225" lat="32.731587">
        <ele>405.0</ele>
        <time>2011-02-22T18:03:11Z</time>
      </trkpt>
      <trkpt lon="35.0613" lat="32.731544">
        <ele>405.0</ele>
        <time>2011-02-22T18:03:14Z</time>
      </trkpt>
      <trkpt lon="35.061466" lat="32.731603">
        <ele>404.0</ele>
        <time>2011-02-22T18:03:19Z</time>
      </trkpt>
      <trkpt lon="35.06153" lat="32.73164">
        <ele>404.0</ele>
        <time>2011-02-22T18:03:21Z</time>
      </trkpt>
      <trkpt lon="35.061681" lat="32.731748">
        <ele>405.0</ele>
        <time>2011-02-22T18:03:27Z</time>
      </trkpt>
      <trkpt lon="35.061745" lat="32.731785">
        <ele>404.0</ele>
        <time>2011-02-22T18:03:29Z</time>
      </trkpt>
      <trkpt lon="35.061895" lat="32.731866">
        <ele>404.0</ele>
        <time>2011-02-22T18:03:35Z</time>
      </trkpt>
      <trkpt lon="35.062067" lat="32.731925">
        <ele>404.0</ele>
        <time>2011-02-22T18:03:39Z</time>
      </trkpt>
      <trkpt lon="35.062153" lat="32.731973">
        <ele>404.0</ele>
        <time>2011-02-22T18:03:42Z</time>
      </trkpt>
      <trkpt lon="35.062244" lat="32.732">
        <ele>404.0</ele>
        <time>2011-02-22T18:03:45Z</time>
      </trkpt>
      <trkpt lon="35.062432" lat="32.732016">
        <ele>404.0</ele>
        <time>2011-02-22T18:03:50Z</time>
      </trkpt>
      <trkpt lon="35.062609" lat="32.731994">
        <ele>403.0</ele>
        <time>2011-02-22T18:03:54Z</time>
      </trkpt>
      <trkpt lon="35.062786" lat="32.731951">
        <ele>403.0</ele>
        <time>2011-02-22T18:03:58Z</time>
      </trkpt>
      <trkpt lon="35.062936" lat="32.731866">
        <ele>403.0</ele>
        <time>2011-02-22T18:04:02Z</time>
      </trkpt>
      <trkpt lon="35.063065" lat="32.731758">
        <ele>403.0</ele>
        <time>2011-02-22T18:04:06Z</time>
      </trkpt>
      <trkpt lon="35.06321" lat="32.731651">
        <ele>403.0</ele>
        <time>2011-02-22T18:04:10Z</time>
      </trkpt>
      <trkpt lon="35.063397" lat="32.731592">
        <ele>403.0</ele>
        <time>2011-02-22T18:04:14Z</time>
      </trkpt>
      <trkpt lon="35.063564" lat="32.731474">
        <ele>403.0</ele>
        <time>2011-02-22T18:04:18Z</time>
      </trkpt>
      <trkpt lon="35.063741" lat="32.731367">
        <ele>403.0</ele>
        <time>2011-02-22T18:04:22Z</time>
      </trkpt>
      <trkpt lon="35.063875" lat="32.731243">
        <ele>403.0</ele>
        <time>2011-02-22T18:04:26Z</time>
      </trkpt>
      <trkpt lon="35.064003" lat="32.731141">
        <ele>403.0</ele>
        <time>2011-02-22T18:04:30Z</time>
      </trkpt>
      <trkpt lon="35.06418" lat="32.731082">
        <ele>403.0</ele>
        <time>2011-02-22T18:04:34Z</time>
      </trkpt>
      <trkpt lon="35.064336" lat="32.731088">
        <ele>404.0</ele>
        <time>2011-02-22T18:04:38Z</time>
      </trkpt>
      <trkpt lon="35.064508" lat="32.731115">
        <ele>404.0</ele>
        <time>2011-02-22T18:04:42Z</time>
      </trkpt>
      <trkpt lon="35.064679" lat="32.731141">
        <ele>405.0</ele>
        <time>2011-02-22T18:04:46Z</time>
      </trkpt>
      <trkpt lon="35.064873" lat="32.731163">
        <ele>406.0</ele>
        <time>2011-02-22T18:04:51Z</time>
      </trkpt>
      <trkpt lon="35.065028" lat="32.731179">
        <ele>406.0</ele>
        <time>2011-02-22T18:04:55Z</time>
      </trkpt>
      <trkpt lon="35.065109" lat="32.731184">
        <ele>406.0</ele>
        <time>2011-02-22T18:04:57Z</time>
      </trkpt>
      <trkpt lon="35.065328" lat="32.731206">
        <ele>408.0</ele>
        <time>2011-02-22T18:05:03Z</time>
      </trkpt>
      <trkpt lon="35.065484" lat="32.7312">
        <ele>410.0</ele>
        <time>2011-02-22T18:05:08Z</time>
      </trkpt>
      <trkpt lon="35.065581" lat="32.7312">
        <ele>411.0</ele>
        <time>2011-02-22T18:05:10Z</time>
      </trkpt>
      <trkpt lon="35.065666" lat="32.731195">
        <ele>411.0</ele>
        <time>2011-02-22T18:05:13Z</time>
      </trkpt>
      <trkpt lon="35.065758" lat="32.73119">
        <ele>411.0</ele>
        <time>2011-02-22T18:05:17Z</time>
      </trkpt>
      <trkpt lon="35.065854" lat="32.731174">
        <ele>411.0</ele>
        <time>2011-02-22T18:05:22Z</time>
      </trkpt>
      <trkpt lon="35.065929" lat="32.731158">
        <ele>411.0</ele>
        <time>2011-02-22T18:05:24Z</time>
      </trkpt>
      <trkpt lon="35.06601" lat="32.73112">
        <ele>411.0</ele>
        <time>2011-02-22T18:05:28Z</time>
      </trkpt>
      <trkpt lon="35.06601" lat="32.73112">
        <time>2011-02-22T18:05:40Z</time>
      </trkpt>
    </trkseg>
    <trkseg>
      <trkpt lon="35.06601" lat="32.73112">
        <time>2011-02-22T18:06:04Z</time>
      </trkpt>
      <trkpt lon="35.06601" lat="32.73112">
        <time>2011-02-22T18:06:16Z</time>
      </trkpt>
    </trkseg>
    <trkseg>
      <trkpt lon="35.06601" lat="32.73112">
        <time>2011-02-22T18:07:58Z</time>
      </trkpt>
      <trkpt lon="35.066069" lat="32.730943">
        <ele>409.0</ele>
        <time>2011-02-22T18:08:01Z</time>
      </trkpt>
      <trkpt lon="35.066096" lat="32.730798">
        <ele>409.0</ele>
        <time>2011-02-22T18:08:06Z</time>
      </trkpt>
      <trkpt lon="35.066069" lat="32.730664">
        <ele>408.0</ele>
        <time>2011-02-22T18:08:10Z</time>
      </trkpt>
      <trkpt lon="35.065994" lat="32.730471">
        <ele>407.0</ele>
        <time>2011-02-22T18:08:14Z</time>
      </trkpt>
      <trkpt lon="35.065935" lat="32.730251">
        <ele>407.0</ele>
        <time>2011-02-22T18:08:18Z</time>
      </trkpt>
      <trkpt lon="35.065886" lat="32.730063">
        <ele>408.0</ele>
        <time>2011-02-22T18:08:22Z</time>
      </trkpt>
      <trkpt lon="35.065881" lat="32.729886">
        <ele>407.0</ele>
        <time>2011-02-22T18:08:26Z</time>
      </trkpt>
      <trkpt lon="35.065897" lat="32.729698">
        <ele>406.0</ele>
        <time>2011-02-22T18:08:30Z</time>
      </trkpt>
      <trkpt lon="35.065929" lat="32.729495">
        <ele>404.0</ele>
        <time>2011-02-22T18:08:34Z</time>
      </trkpt>
      <trkpt lon="35.065945" lat="32.729291">
        <ele>403.0</ele>
        <time>2011-02-22T18:08:38Z</time>
      </trkpt>
      <trkpt lon="35.065956" lat="32.729087">
        <ele>402.0</ele>
        <time>2011-02-22T18:08:42Z</time>
      </trkpt>
      <trkpt lon="35.065999" lat="32.728867">
        <ele>400.0</ele>
        <time>2011-02-22T18:08:46Z</time>
      </trkpt>
      <trkpt lon="35.066079" lat="32.728631">
        <ele>400.0</ele>
        <time>2011-02-22T18:08:50Z</time>
      </trkpt>
      <trkpt lon="35.066155" lat="32.728406">
        <ele>399.0</ele>
        <time>2011-02-22T18:08:54Z</time>
      </trkpt>
      <trkpt lon="35.066198" lat="32.72817">
        <ele>398.0</ele>
        <time>2011-02-22T18:08:59Z</time>
      </trkpt>
      <trkpt lon="35.066219" lat="32.727944">
        <ele>397.0</ele>
        <time>2011-02-22T18:09:02Z</time>
      </trkpt>
      <trkpt lon="35.066251" lat="32.727622">
        <ele>394.0</ele>
        <time>2011-02-22T18:09:07Z</time>
      </trkpt>
      <trkpt lon="35.066208" lat="32.727333">
        <ele>392.0</ele>
        <time>2011-02-22T18:09:11Z</time>
      </trkpt>
      <trkpt lon="35.066176" lat="32.727097">
        <ele>392.0</ele>
        <time>2011-02-22T18:09:15Z</time>
      </trkpt>
      <trkpt lon="35.06609" lat="32.726898">
        <ele>393.0</ele>
        <time>2011-02-22T18:09:19Z</time>
      </trkpt>
      <trkpt lon="35.06601" lat="32.726673">
        <ele>392.0</ele>
        <time>2011-02-22T18:09:23Z</time>
      </trkpt>
      <trkpt lon="35.065978" lat="32.726587">
        <ele>393.0</ele>
        <time>2011-02-22T18:09:26Z</time>
      </trkpt>
      <trkpt lon="35.06587" lat="32.726431">
        <ele>393.0</ele>
        <time>2011-02-22T18:09:30Z</time>
      </trkpt>
      <trkpt lon="35.065795" lat="32.726244">
        <ele>393.0</ele>
        <time>2011-02-22T18:09:34Z</time>
      </trkpt>
      <trkpt lon="35.065736" lat="32.726035">
        <ele>393.0</ele>
        <time>2011-02-22T18:09:38Z</time>
      </trkpt>
      <trkpt lon="35.06572" lat="32.725815">
        <ele>393.0</ele>
        <time>2011-02-22T18:09:42Z</time>
      </trkpt>
      <trkpt lon="35.065645" lat="32.725509">
        <ele>390.0</ele>
        <time>2011-02-22T18:09:47Z</time>
      </trkpt>
      <trkpt lon="35.065414" lat="32.725267">
        <ele>387.0</ele>
        <time>2011-02-22T18:09:51Z</time>
      </trkpt>
      <trkpt lon="35.06528" lat="32.725149">
        <ele>386.0</ele>
        <time>2011-02-22T18:09:54Z</time>
      </trkpt>
      <trkpt lon="35.065302" lat="32.72501">
        <ele>387.0</ele>
        <time>2011-02-22T18:09:59Z</time>
      </trkpt>
      <trkpt lon="35.065377" lat="32.724972">
        <ele>388.0</ele>
        <time>2011-02-22T18:10:02Z</time>
      </trkpt>
      <trkpt lon="35.065468" lat="32.724924">
        <ele>388.0</ele>
        <time>2011-02-22T18:10:05Z</time>
      </trkpt>
      <trkpt lon="35.065591" lat="32.72479">
        <ele>390.0</ele>
        <time>2011-02-22T18:10:10Z</time>
      </trkpt>
      <trkpt lon="35.065672" lat="32.724661">
        <ele>391.0</ele>
        <time>2011-02-22T18:10:14Z</time>
      </trkpt>
      <trkpt lon="35.065758" lat="32.724532">
        <ele>391.0</ele>
        <time>2011-02-22T18:10:18Z</time>
      </trkpt>
      <trkpt lon="35.065849" lat="32.724404">
        <ele>392.0</ele>
        <time>2011-02-22T18:10:22Z</time>
      </trkpt>
      <trkpt lon="35.065978" lat="32.724291">
        <ele>392.0</ele>
        <time>2011-02-22T18:10:27Z</time>
      </trkpt>
      <trkpt lon="35.066139" lat="32.724275">
        <ele>391.0</ele>
        <time>2011-02-22T18:10:31Z</time>
      </trkpt>
      <trkpt lon="35.066289" lat="32.724339">
        <ele>391.0</ele>
        <time>2011-02-22T18:10:35Z</time>
      </trkpt>
      <trkpt lon="35.066348" lat="32.724457">
        <ele>392.0</ele>
        <time>2011-02-22T18:10:39Z</time>
      </trkpt>
      <trkpt lon="35.066358" lat="32.724522">
        <ele>393.0</ele>
        <time>2011-02-22T18:10:41Z</time>
      </trkpt>
      <trkpt lon="35.066364" lat="32.724677">
        <ele>395.0</ele>
        <time>2011-02-22T18:10:46Z</time>
      </trkpt>
      <trkpt lon="35.066375" lat="32.724763">
        <ele>395.0</ele>
        <time>2011-02-22T18:10:49Z</time>
      </trkpt>
      <trkpt lon="35.066444" lat="32.724924">
        <ele>395.0</ele>
        <time>2011-02-22T18:10:55Z</time>
      </trkpt>
      <trkpt lon="35.066493" lat="32.724999">
        <ele>396.0</ele>
        <time>2011-02-22T18:10:58Z</time>
      </trkpt>
      <trkpt lon="35.066535" lat="32.725069">
        <ele>396.0</ele>
        <time>2011-02-22T18:11:01Z</time>
      </trkpt>
      <trkpt lon="35.066616" lat="32.725192">
        <ele>398.0</ele>
        <time>2011-02-22T18:11:07Z</time>
      </trkpt>
      <trkpt lon="35.066691" lat="32.725246">
        <ele>398.0</ele>
        <time>2011-02-22T18:11:10Z</time>
      </trkpt>
      <trkpt lon="35.06675" lat="32.725294">
        <ele>398.0</ele>
        <time>2011-02-22T18:11:13Z</time>
      </trkpt>
      <trkpt lon="35.066879" lat="32.725402">
        <ele>400.0</ele>
        <time>2011-02-22T18:11:19Z</time>
      </trkpt>
      <trkpt lon="35.066922" lat="32.725477">
        <ele>401.0</ele>
        <time>2011-02-22T18:11:23Z</time>
      </trkpt>
      <trkpt lon="35.066981" lat="32.725541">
        <ele>402.0</ele>
        <time>2011-02-22T18:11:27Z</time>
      </trkpt>
      <trkpt lon="35.067045" lat="32.725579">
        <ele>403.0</ele>
        <time>2011-02-22T18:11:31Z</time>
      </trkpt>
      <trkpt lon="35.067126" lat="32.725611">
        <ele>403.0</ele>
        <time>2011-02-22T18:11:35Z</time>
      </trkpt>
      <trkpt lon="35.06719" lat="32.725648">
        <ele>404.0</ele>
        <time>2011-02-22T18:11:39Z</time>
      </trkpt>
      <trkpt lon="35.067265" lat="32.725686">
        <ele>405.0</ele>
        <time>2011-02-22T18:11:43Z</time>
      </trkpt>
      <trkpt lon="35.067335" lat="32.725739">
        <ele>405.0</ele>
        <time>2011-02-22T18:11:47Z</time>
      </trkpt>
      <trkpt lon="35.067405" lat="32.725793">
        <ele>406.0</ele>
        <time>2011-02-22T18:11:51Z</time>
      </trkpt>
      <trkpt lon="35.067469" lat="32.725836">
        <ele>407.0</ele>
        <time>2011-02-22T18:11:55Z</time>
      </trkpt>
      <trkpt lon="35.067539" lat="32.725863">
        <ele>407.0</ele>
        <time>2011-02-22T18:11:59Z</time>
      </trkpt>
      <trkpt lon="35.067614" lat="32.725911">
        <ele>409.0</ele>
        <time>2011-02-22T18:12:03Z</time>
      </trkpt>
      <trkpt lon="35.0677" lat="32.725959">
        <ele>409.0</ele>
        <time>2011-02-22T18:12:09Z</time>
      </trkpt>
      <trkpt lon="35.067764" lat="32.726002">
        <ele>409.0</ele>
        <time>2011-02-22T18:12:13Z</time>
      </trkpt>
      <trkpt lon="35.067839" lat="32.726045">
        <ele>411.0</ele>
        <time>2011-02-22T18:12:18Z</time>
      </trkpt>
      <trkpt lon="35.067903" lat="32.726088">
        <ele>413.0</ele>
        <time>2011-02-22T18:12:23Z</time>
      </trkpt>
      <trkpt lon="35.067952" lat="32.726136">
        <ele>414.0</ele>
        <time>2011-02-22T18:12:27Z</time>
      </trkpt>
      <trkpt lon="35.068005" lat="32.726185">
        <ele>415.0</ele>
        <time>2011-02-22T18:12:31Z</time>
      </trkpt>
      <trkpt lon="35.06807" lat="32.726233">
        <ele>416.0</ele>
        <time>2011-02-22T18:12:37Z</time>
      </trkpt>
      <trkpt lon="35.068134" lat="32.726287">
        <ele>417.0</ele>
        <time>2011-02-22T18:12:42Z</time>
      </trkpt>
      <trkpt lon="35.068182" lat="32.726335">
        <ele>417.0</ele>
        <time>2011-02-22T18:12:47Z</time>
      </trkpt>
      <trkpt lon="35.068247" lat="32.726367">
        <ele>417.0</ele>
        <time>2011-02-22T18:12:51Z</time>
      </trkpt>
      <trkpt lon="35.068333" lat="32.726383">
        <ele>418.0</ele>
        <time>2011-02-22T18:12:56Z</time>
      </trkpt>
      <trkpt lon="35.068418" lat="32.726383">
        <ele>418.0</ele>
        <time>2011-02-22T18:13:01Z</time>
      </trkpt>
      <trkpt lon="35.068504" lat="32.726378">
        <ele>418.0</ele>
        <time>2011-02-22T18:13:06Z</time>
      </trkpt>
      <trkpt lon="35.06859" lat="32.726356">
        <ele>419.0</ele>
        <time>2011-02-22T18:13:11Z</time>
      </trkpt>
      <trkpt lon="35.068671" lat="32.726324">
        <ele>419.0</ele>
        <time>2011-02-22T18:13:16Z</time>
      </trkpt>
      <trkpt lon="35.06874" lat="32.726292">
        <ele>419.0</ele>
        <time>2011-02-22T18:13:20Z</time>
      </trkpt>
      <trkpt lon="35.068826" lat="32.726271">
        <ele>421.0</ele>
        <time>2011-02-22T18:13:25Z</time>
      </trkpt>
      <trkpt lon="35.068907" lat="32.726254">
        <ele>424.0</ele>
        <time>2011-02-22T18:13:30Z</time>
      </trkpt>
      <trkpt lon="35.068982" lat="32.726238">
        <ele>424.0</ele>
        <time>2011-02-22T18:13:34Z</time>
      </trkpt>
      <trkpt lon="35.069062" lat="32.726238">
        <ele>426.0</ele>
        <time>2011-02-22T18:13:38Z</time>
      </trkpt>
      <trkpt lon="35.069148" lat="32.726254">
        <ele>426.0</ele>
        <time>2011-02-22T18:13:42Z</time>
      </trkpt>
      <trkpt lon="35.069228" lat="32.726281">
        <ele>427.0</ele>
        <time>2011-02-22T18:13:46Z</time>
      </trkpt>
      <trkpt lon="35.069287" lat="32.726335">
        <ele>426.0</ele>
        <time>2011-02-22T18:13:50Z</time>
      </trkpt>
      <trkpt lon="35.069293" lat="32.72641">
        <ele>427.0</ele>
        <time>2011-02-22T18:13:54Z</time>
      </trkpt>
      <trkpt lon="35.069266" lat="32.72648">
        <ele>428.0</ele>
        <time>2011-02-22T18:13:58Z</time>
      </trkpt>
      <trkpt lon="35.069255" lat="32.726555">
        <ele>430.0</ele>
        <time>2011-02-22T18:14:02Z</time>
      </trkpt>
      <trkpt lon="35.069255" lat="32.726635">
        <ele>430.0</ele>
        <time>2011-02-22T18:14:06Z</time>
      </trkpt>
      <trkpt lon="35.069255" lat="32.7267">
        <ele>430.0</ele>
        <time>2011-02-22T18:14:09Z</time>
      </trkpt>
      <trkpt lon="35.069261" lat="32.726764">
        <ele>430.0</ele>
        <time>2011-02-22T18:14:12Z</time>
      </trkpt>
      <trkpt lon="35.069261" lat="32.726845">
        <ele>430.0</ele>
        <time>2011-02-22T18:14:16Z</time>
      </trkpt>
      <trkpt lon="35.069271" lat="32.726989">
        <ele>429.0</ele>
        <time>2011-02-22T18:14:23Z</time>
      </trkpt>
      <trkpt lon="35.069277" lat="32.727054">
        <ele>429.0</ele>
        <time>2011-02-22T18:14:26Z</time>
      </trkpt>
      <trkpt lon="35.069287" lat="32.727123">
        <ele>429.0</ele>
        <time>2011-02-22T18:14:29Z</time>
      </trkpt>
      <trkpt lon="35.069309" lat="32.727188">
        <ele>429.0</ele>
        <time>2011-02-22T18:14:32Z</time>
      </trkpt>
      <trkpt lon="35.06932" lat="32.727268">
        <ele>430.0</ele>
        <time>2011-02-22T18:14:36Z</time>
      </trkpt>
      <trkpt lon="35.069304" lat="32.727343">
        <ele>430.0</ele>
        <time>2011-02-22T18:14:40Z</time>
      </trkpt>
      <trkpt lon="35.069314" lat="32.727483">
        <ele>432.0</ele>
        <time>2011-02-22T18:14:47Z</time>
      </trkpt>
      <trkpt lon="35.069341" lat="32.727558">
        <ele>432.0</ele>
        <time>2011-02-22T18:14:51Z</time>
      </trkpt>
      <trkpt lon="35.069379" lat="32.727633">
        <ele>433.0</ele>
        <time>2011-02-22T18:14:55Z</time>
      </trkpt>
      <trkpt lon="35.069416" lat="32.727703">
        <ele>433.0</ele>
        <time>2011-02-22T18:14:59Z</time>
      </trkpt>
      <trkpt lon="35.069454" lat="32.727767">
        <ele>433.0</ele>
        <time>2011-02-22T18:15:03Z</time>
      </trkpt>
      <trkpt lon="35.069507" lat="32.727832">
        <ele>434.0</ele>
        <time>2011-02-22T18:15:07Z</time>
      </trkpt>
      <trkpt lon="35.069566" lat="32.727885">
        <ele>434.0</ele>
        <time>2011-02-22T18:15:12Z</time>
      </trkpt>
      <trkpt lon="35.069631" lat="32.727923">
        <ele>435.0</ele>
        <time>2011-02-22T18:15:15Z</time>
      </trkpt>
      <trkpt lon="35.069695" lat="32.727966">
        <ele>435.0</ele>
        <time>2011-02-22T18:15:20Z</time>
      </trkpt>
      <trkpt lon="35.069765" lat="32.728009">
        <ele>436.0</ele>
        <time>2011-02-22T18:15:25Z</time>
      </trkpt>
      <trkpt lon="35.06984" lat="32.728052">
        <ele>437.0</ele>
        <time>2011-02-22T18:15:30Z</time>
      </trkpt>
      <trkpt lon="35.069904" lat="32.728084">
        <ele>437.0</ele>
        <time>2011-02-22T18:15:34Z</time>
      </trkpt>
      <trkpt lon="35.069979" lat="32.728116">
        <ele>437.0</ele>
        <time>2011-02-22T18:15:39Z</time>
      </trkpt>
      <trkpt lon="35.070055" lat="32.728148">
        <ele>438.0</ele>
        <time>2011-02-22T18:15:44Z</time>
      </trkpt>
      <trkpt lon="35.07013" lat="32.728186">
        <ele>438.0</ele>
        <time>2011-02-22T18:15:49Z</time>
      </trkpt>
      <trkpt lon="35.070215" lat="32.728218">
        <ele>439.0</ele>
        <time>2011-02-22T18:15:54Z</time>
      </trkpt>
      <trkpt lon="35.070296" lat="32.728239">
        <ele>439.0</ele>
        <time>2011-02-22T18:15:59Z</time>
      </trkpt>
      <trkpt lon="35.070376" lat="32.728271">
        <ele>440.0</ele>
        <time>2011-02-22T18:16:04Z</time>
      </trkpt>
      <trkpt lon="35.070457" lat="32.728298">
        <ele>441.0</ele>
        <time>2011-02-22T18:16:09Z</time>
      </trkpt>
      <trkpt lon="35.070537" lat="32.728336">
        <ele>443.0</ele>
        <time>2011-02-22T18:16:14Z</time>
      </trkpt>
      <trkpt lon="35.070602" lat="32.72839">
        <ele>444.0</ele>
        <time>2011-02-22T18:16:19Z</time>
      </trkpt>
      <trkpt lon="35.07065" lat="32.728443">
        <ele>445.0</ele>
        <time>2011-02-22T18:16:23Z</time>
      </trkpt>
      <trkpt lon="35.07072" lat="32.728486">
        <ele>445.0</ele>
        <time>2011-02-22T18:16:27Z</time>
      </trkpt>
      <trkpt lon="35.070789" lat="32.728524">
        <ele>446.0</ele>
        <time>2011-02-22T18:16:31Z</time>
      </trkpt>
      <trkpt lon="35.070865" lat="32.728556">
        <ele>447.0</ele>
        <time>2011-02-22T18:16:35Z</time>
      </trkpt>
      <trkpt lon="35.070945" lat="32.728583">
        <ele>447.0</ele>
        <time>2011-02-22T18:16:40Z</time>
      </trkpt>
      <trkpt lon="35.07102" lat="32.728609">
        <ele>447.0</ele>
        <time>2011-02-22T18:16:44Z</time>
      </trkpt>
      <trkpt lon="35.071095" lat="32.728631">
        <ele>448.0</ele>
        <time>2011-02-22T18:16:48Z</time>
      </trkpt>
      <trkpt lon="35.07117" lat="32.728658">
        <ele>448.0</ele>
        <time>2011-02-22T18:16:52Z</time>
      </trkpt>
      <trkpt lon="35.071251" lat="32.72869">
        <ele>448.0</ele>
        <time>2011-02-22T18:16:56Z</time>
      </trkpt>
      <trkpt lon="35.071331" lat="32.728711">
        <ele>448.0</ele>
        <time>2011-02-22T18:17:00Z</time>
      </trkpt>
      <trkpt lon="35.071412" lat="32.728727">
        <ele>449.0</ele>
        <time>2011-02-22T18:17:04Z</time>
      </trkpt>
      <trkpt lon="35.071503" lat="32.728733">
        <ele>449.0</ele>
        <time>2011-02-22T18:17:08Z</time>
      </trkpt>
      <trkpt lon="35.071589" lat="32.728717">
        <ele>450.0</ele>
        <time>2011-02-22T18:17:12Z</time>
      </trkpt>
      <trkpt lon="35.071669" lat="32.728668">
        <ele>450.0</ele>
        <time>2011-02-22T18:17:16Z</time>
      </trkpt>
      <trkpt lon="35.071728" lat="32.728604">
        <ele>450.0</ele>
        <time>2011-02-22T18:17:20Z</time>
      </trkpt>
      <trkpt lon="35.071739" lat="32.728529">
        <ele>450.0</ele>
        <time>2011-02-22T18:17:24Z</time>
      </trkpt>
      <trkpt lon="35.071675" lat="32.728395">
        <ele>451.0</ele>
        <time>2011-02-22T18:17:31Z</time>
      </trkpt>
      <trkpt lon="35.071616" lat="32.728347">
        <ele>452.0</ele>
        <time>2011-02-22T18:17:34Z</time>
      </trkpt>
      <trkpt lon="35.071557" lat="32.728298">
        <ele>452.0</ele>
        <time>2011-02-22T18:17:37Z</time>
      </trkpt>
      <trkpt lon="35.071428" lat="32.728202">
        <ele>454.0</ele>
        <time>2011-02-22T18:17:43Z</time>
      </trkpt>
      <trkpt lon="35.071369" lat="32.728159">
        <ele>455.0</ele>
        <time>2011-02-22T18:17:46Z</time>
      </trkpt>
      <trkpt lon="35.071294" lat="32.7281">
        <ele>456.0</ele>
        <time>2011-02-22T18:17:50Z</time>
      </trkpt>
      <trkpt lon="35.071229" lat="32.728062">
        <ele>457.0</ele>
        <time>2011-02-22T18:17:53Z</time>
      </trkpt>
      <trkpt lon="35.07117" lat="32.728014">
        <ele>458.0</ele>
        <time>2011-02-22T18:17:57Z</time>
      </trkpt>
      <trkpt lon="35.071101" lat="32.727971">
        <ele>457.0</ele>
        <time>2011-02-22T18:18:01Z</time>
      </trkpt>
      <trkpt lon="35.071052" lat="32.728035">
        <ele>458.0</ele>
        <time>2011-02-22T18:18:07Z</time>
      </trkpt>
      <trkpt lon="35.070983" lat="32.728062">
        <ele>457.0</ele>
        <time>2011-02-22T18:18:13Z</time>
      </trkpt>
      <trkpt lon="35.070983" lat="32.728062">
        <time>2011-02-22T18:18:25Z</time>
      </trkpt>
    </trkseg>
    <trkseg>
      <trkpt lon="35.070983" lat="32.728062">
        <time>2011-02-22T18:19:48Z</time>
      </trkpt>
      <trkpt lon="35.070881" lat="32.727703">
        <ele>459.0</ele>
        <time>2011-02-22T18:19:59Z</time>
      </trkpt>
      <trkpt lon="35.070859" lat="32.727622">
        <ele>459.0</ele>
        <time>2011-02-22T18:20:03Z</time>
      </trkpt>
      <trkpt lon="35.070848" lat="32.727553">
        <ele>460.0</ele>
        <time>2011-02-22T18:20:07Z</time>
      </trkpt>
      <trkpt lon="35.070843" lat="32.727488">
        <ele>460.0</ele>
        <time>2011-02-22T18:20:11Z</time>
      </trkpt>
      <trkpt lon="35.070859" lat="32.727408">
        <ele>462.0</ele>
        <time>2011-02-22T18:20:15Z</time>
      </trkpt>
      <trkpt lon="35.070875" lat="32.727338">
        <ele>463.0</ele>
        <time>2011-02-22T18:20:19Z</time>
      </trkpt>
      <trkpt lon="35.070891" lat="32.727274">
        <ele>463.0</ele>
        <time>2011-02-22T18:20:23Z</time>
      </trkpt>
      <trkpt lon="35.070913" lat="32.727199">
        <ele>464.0</ele>
        <time>2011-02-22T18:20:27Z</time>
      </trkpt>
      <trkpt lon="35.070934" lat="32.727123">
        <ele>464.0</ele>
        <time>2011-02-22T18:20:31Z</time>
      </trkpt>
      <trkpt lon="35.070961" lat="32.727059">
        <ele>464.0</ele>
        <time>2011-02-22T18:20:35Z</time>
      </trkpt>
      <trkpt lon="35.070988" lat="32.726995">
        <ele>465.0</ele>
        <time>2011-02-22T18:20:39Z</time>
      </trkpt>
      <trkpt lon="35.071015" lat="32.72692">
        <ele>466.0</ele>
        <time>2011-02-22T18:20:44Z</time>
      </trkpt>
      <trkpt lon="35.071058" lat="32.72685">
        <ele>468.0</ele>
        <time>2011-02-22T18:20:49Z</time>
      </trkpt>
      <trkpt lon="35.071095" lat="32.726786">
        <ele>469.0</ele>
        <time>2011-02-22T18:20:53Z</time>
      </trkpt>
      <trkpt lon="35.071127" lat="32.726727">
        <ele>469.0</ele>
        <time>2011-02-22T18:20:57Z</time>
      </trkpt>
      <trkpt lon="35.071186" lat="32.726673">
        <ele>471.0</ele>
        <time>2011-02-22T18:21:01Z</time>
      </trkpt>
      <trkpt lon="35.071294" lat="32.72655">
        <ele>473.0</ele>
        <time>2011-02-22T18:21:09Z</time>
      </trkpt>
      <trkpt lon="35.07138" lat="32.726437">
        <ele>473.0</ele>
        <time>2011-02-22T18:21:15Z</time>
      </trkpt>
      <trkpt lon="35.071471" lat="32.72633">
        <ele>473.0</ele>
        <time>2011-02-22T18:21:21Z</time>
      </trkpt>
      <trkpt lon="35.071535" lat="32.726292">
        <ele>473.0</ele>
        <time>2011-02-22T18:21:25Z</time>
      </trkpt>
      <trkpt lon="35.07161" lat="32.726238">
        <ele>474.0</ele>
        <time>2011-02-22T18:21:30Z</time>
      </trkpt>
      <trkpt lon="35.071675" lat="32.726206">
        <ele>473.0</ele>
        <time>2011-02-22T18:21:33Z</time>
      </trkpt>
      <trkpt lon="35.07175" lat="32.726185">
        <ele>474.0</ele>
        <time>2011-02-22T18:21:37Z</time>
      </trkpt>
      <trkpt lon="35.07183" lat="32.726158">
        <ele>475.0</ele>
        <time>2011-02-22T18:21:41Z</time>
      </trkpt>
      <trkpt lon="35.072018" lat="32.726094">
        <ele>475.0</ele>
        <time>2011-02-22T18:21:50Z</time>
      </trkpt>
      <trkpt lon="35.072104" lat="32.726072">
        <ele>474.0</ele>
        <time>2011-02-22T18:21:54Z</time>
      </trkpt>
      <trkpt lon="35.072249" lat="32.726013">
        <ele>477.0</ele>
        <time>2011-02-22T18:22:02Z</time>
      </trkpt>
      <trkpt lon="35.072404" lat="32.725943">
        <ele>479.0</ele>
        <time>2011-02-22T18:22:12Z</time>
      </trkpt>
      <trkpt lon="35.072458" lat="32.725895">
        <ele>479.0</ele>
        <time>2011-02-22T18:22:17Z</time>
      </trkpt>
      <trkpt lon="35.072613" lat="32.725782">
        <ele>481.0</ele>
        <time>2011-02-22T18:22:27Z</time>
      </trkpt>
      <trkpt lon="35.072683" lat="32.725734">
        <ele>481.0</ele>
        <time>2011-02-22T18:22:32Z</time>
      </trkpt>
      <trkpt lon="35.072753" lat="32.72568">
        <ele>482.0</ele>
        <time>2011-02-22T18:22:37Z</time>
      </trkpt>
      <trkpt lon="35.072823" lat="32.725632">
        <ele>481.0</ele>
        <time>2011-02-22T18:22:41Z</time>
      </trkpt>
      <trkpt lon="35.072892" lat="32.7256">
        <ele>484.0</ele>
        <time>2011-02-22T18:22:45Z</time>
      </trkpt>
      <trkpt lon="35.073016" lat="32.725498">
        <ele>484.0</ele>
        <time>2011-02-22T18:22:54Z</time>
      </trkpt>
      <trkpt lon="35.073037" lat="32.725428">
        <ele>485.0</ele>
        <time>2011-02-22T18:22:57Z</time>
      </trkpt>
      <trkpt lon="35.073064" lat="32.725353">
        <ele>486.0</ele>
        <time>2011-02-22T18:23:01Z</time>
      </trkpt>
      <trkpt lon="35.073096" lat="32.725278">
        <ele>487.0</ele>
        <time>2011-02-22T18:23:05Z</time>
      </trkpt>
      <trkpt lon="35.073128" lat="32.725219">
        <ele>489.0</ele>
        <time>2011-02-22T18:23:09Z</time>
      </trkpt>
      <trkpt lon="35.073155" lat="32.72516">
        <ele>489.0</ele>
        <time>2011-02-22T18:23:13Z</time>
      </trkpt>
      <trkpt lon="35.073279" lat="32.724972">
        <ele>491.0</ele>
        <time>2011-02-22T18:23:27Z</time>
      </trkpt>
      <trkpt lon="35.073327" lat="32.724903">
        <ele>490.0</ele>
        <time>2011-02-22T18:23:31Z</time>
      </trkpt>
      <trkpt lon="35.073477" lat="32.724817">
        <ele>492.0</ele>
        <time>2011-02-22T18:23:39Z</time>
      </trkpt>
      <trkpt lon="35.073557" lat="32.724806">
        <ele>492.0</ele>
        <time>2011-02-22T18:23:43Z</time>
      </trkpt>
      <trkpt lon="35.073638" lat="32.724763">
        <ele>493.0</ele>
        <time>2011-02-22T18:23:48Z</time>
      </trkpt>
      <trkpt lon="35.073686" lat="32.72471">
        <ele>495.0</ele>
        <time>2011-02-22T18:23:52Z</time>
      </trkpt>
      <trkpt lon="35.073735" lat="32.724656">
        <ele>494.0</ele>
        <time>2011-02-22T18:23:56Z</time>
      </trkpt>
      <trkpt lon="35.073794" lat="32.724608">
        <ele>496.0</ele>
        <time>2011-02-22T18:24:00Z</time>
      </trkpt>
      <trkpt lon="35.073847" lat="32.724554">
        <ele>497.0</ele>
        <time>2011-02-22T18:24:04Z</time>
      </trkpt>
      <trkpt lon="35.073933" lat="32.724516">
        <ele>498.0</ele>
        <time>2011-02-22T18:24:08Z</time>
      </trkpt>
      <trkpt lon="35.074078" lat="32.724441">
        <ele>498.0</ele>
        <time>2011-02-22T18:24:15Z</time>
      </trkpt>
      <trkpt lon="35.074153" lat="32.724414">
        <ele>499.0</ele>
        <time>2011-02-22T18:24:18Z</time>
      </trkpt>
      <trkpt lon="35.074217" lat="32.724382">
        <ele>499.0</ele>
        <time>2011-02-22T18:24:21Z</time>
      </trkpt>
      <trkpt lon="35.074362" lat="32.724307">
        <ele>498.0</ele>
        <time>2011-02-22T18:24:27Z</time>
      </trkpt>
      <trkpt lon="35.074443" lat="32.724264">
        <ele>497.0</ele>
        <time>2011-02-22T18:24:30Z</time>
      </trkpt>
      <trkpt lon="35.074523" lat="32.724221">
        <ele>497.0</ele>
        <time>2011-02-22T18:24:33Z</time>
      </trkpt>
      <trkpt lon="35.074668" lat="32.724119">
        <ele>497.0</ele>
        <time>2011-02-22T18:24:39Z</time>
      </trkpt>
      <trkpt lon="35.074738" lat="32.724071">
        <ele>498.0</ele>
        <time>2011-02-22T18:24:42Z</time>
      </trkpt>
      <trkpt lon="35.074813" lat="32.724012">
        <ele>497.0</ele>
        <time>2011-02-22T18:24:45Z</time>
      </trkpt>
      <trkpt lon="35.074958" lat="32.72391">
        <ele>497.0</ele>
        <time>2011-02-22T18:24:51Z</time>
      </trkpt>
      <trkpt lon="35.075033" lat="32.723857">
        <ele>497.0</ele>
        <time>2011-02-22T18:24:54Z</time>
      </trkpt>
      <trkpt lon="35.075113" lat="32.723808">
        <ele>497.0</ele>
        <time>2011-02-22T18:24:57Z</time>
      </trkpt>
      <trkpt lon="35.075274" lat="32.723696">
        <ele>496.0</ele>
        <time>2011-02-22T18:25:04Z</time>
      </trkpt>
      <trkpt lon="35.075328" lat="32.723626">
        <ele>497.0</ele>
        <time>2011-02-22T18:25:07Z</time>
      </trkpt>
      <trkpt lon="35.075365" lat="32.723551">
        <ele>497.0</ele>
        <time>2011-02-22T18:25:10Z</time>
      </trkpt>
      <trkpt lon="35.075392" lat="32.723384">
        <ele>498.0</ele>
        <time>2011-02-22T18:25:16Z</time>
      </trkpt>
      <trkpt lon="35.075387" lat="32.723309">
        <ele>499.0</ele>
        <time>2011-02-22T18:25:19Z</time>
      </trkpt>
      <trkpt lon="35.075376" lat="32.72324">
        <ele>498.0</ele>
        <time>2011-02-22T18:25:22Z</time>
      </trkpt>
      <trkpt lon="35.075355" lat="32.723068">
        <ele>499.0</ele>
        <time>2011-02-22T18:25:28Z</time>
      </trkpt>
      <trkpt lon="35.075338" lat="32.722988">
        <ele>500.0</ele>
        <time>2011-02-22T18:25:31Z</time>
      </trkpt>
      <trkpt lon="35.075344" lat="32.722912">
        <ele>501.0</ele>
        <time>2011-02-22T18:25:34Z</time>
      </trkpt>
      <trkpt lon="35.075408" lat="32.722784">
        <ele>502.0</ele>
        <time>2011-02-22T18:25:40Z</time>
      </trkpt>
      <trkpt lon="35.075467" lat="32.722703">
        <ele>502.0</ele>
        <time>2011-02-22T18:25:43Z</time>
      </trkpt>
      <trkpt lon="35.075526" lat="32.722623">
        <ele>502.0</ele>
        <time>2011-02-22T18:25:46Z</time>
      </trkpt>
      <trkpt lon="35.075564" lat="32.722456">
        <ele>503.0</ele>
        <time>2011-02-22T18:25:52Z</time>
      </trkpt>
      <trkpt lon="35.075542" lat="32.722381">
        <ele>502.0</ele>
        <time>2011-02-22T18:25:55Z</time>
      </trkpt>
      <trkpt lon="35.075494" lat="32.722306">
        <ele>502.0</ele>
        <time>2011-02-22T18:25:58Z</time>
      </trkpt>
      <trkpt lon="35.075403" lat="32.722156">
        <ele>501.0</ele>
        <time>2011-02-22T18:26:04Z</time>
      </trkpt>
      <trkpt lon="35.075403" lat="32.722092">
        <ele>501.0</ele>
        <time>2011-02-22T18:26:06Z</time>
      </trkpt>
      <trkpt lon="35.075419" lat="32.722011">
        <ele>500.0</ele>
        <time>2011-02-22T18:26:09Z</time>
      </trkpt>
      <trkpt lon="35.075521" lat="32.721856">
        <ele>499.0</ele>
        <time>2011-02-22T18:26:15Z</time>
      </trkpt>
      <trkpt lon="35.075617" lat="32.721716">
        <ele>499.0</ele>
        <time>2011-02-22T18:26:20Z</time>
      </trkpt>
      <trkpt lon="35.075698" lat="32.721657">
        <ele>500.0</ele>
        <time>2011-02-22T18:26:23Z</time>
      </trkpt>
      <trkpt lon="35.075778" lat="32.721598">
        <ele>500.0</ele>
        <time>2011-02-22T18:26:26Z</time>
      </trkpt>
      <trkpt lon="35.075902" lat="32.721459">
        <ele>500.0</ele>
        <time>2011-02-22T18:26:32Z</time>
      </trkpt>
      <trkpt lon="35.075945" lat="32.721389">
        <ele>501.0</ele>
        <time>2011-02-22T18:26:35Z</time>
      </trkpt>
      <trkpt lon="35.075993" lat="32.721325">
        <ele>502.0</ele>
        <time>2011-02-22T18:26:39Z</time>
      </trkpt>
      <trkpt lon="35.07603" lat="32.721244">
        <ele>502.0</ele>
        <time>2011-02-22T18:26:42Z</time>
      </trkpt>
      <trkpt lon="35.076122" lat="32.721089">
        <ele>503.0</ele>
        <time>2011-02-22T18:26:50Z</time>
      </trkpt>
      <trkpt lon="35.07617" lat="32.721024">
        <ele>504.0</ele>
        <time>2011-02-22T18:26:54Z</time>
      </trkpt>
      <trkpt lon="35.076277" lat="32.720906">
        <ele>506.0</ele>
        <time>2011-02-22T18:27:02Z</time>
      </trkpt>
      <trkpt lon="35.076395" lat="32.720815">
        <ele>507.0</ele>
        <time>2011-02-22T18:27:08Z</time>
      </trkpt>
      <trkpt lon="35.076449" lat="32.720745">
        <ele>508.0</ele>
        <time>2011-02-22T18:27:12Z</time>
      </trkpt>
      <trkpt lon="35.076503" lat="32.72059">
        <ele>508.0</ele>
        <time>2011-02-22T18:27:19Z</time>
      </trkpt>
      <trkpt lon="35.07654" lat="32.720531">
        <ele>509.0</ele>
        <time>2011-02-22T18:27:22Z</time>
      </trkpt>
      <trkpt lon="35.076583" lat="32.720466">
        <ele>509.0</ele>
        <time>2011-02-22T18:27:26Z</time>
      </trkpt>
      <trkpt lon="35.076642" lat="32.720407">
        <ele>509.0</ele>
        <time>2011-02-22T18:27:29Z</time>
      </trkpt>
      <trkpt lon="35.076685" lat="32.720343">
        <ele>510.0</ele>
        <time>2011-02-22T18:27:33Z</time>
      </trkpt>
      <trkpt lon="35.076723" lat="32.720279">
        <ele>508.0</ele>
        <time>2011-02-22T18:27:36Z</time>
      </trkpt>
      <trkpt lon="35.076846" lat="32.720182">
        <ele>510.0</ele>
        <time>2011-02-22T18:27:43Z</time>
      </trkpt>
      <trkpt lon="35.076953" lat="32.720075">
        <ele>512.0</ele>
        <time>2011-02-22T18:27:50Z</time>
      </trkpt>
      <trkpt lon="35.076996" lat="32.720021">
        <ele>512.0</ele>
        <time>2011-02-22T18:27:53Z</time>
      </trkpt>
      <trkpt lon="35.077044" lat="32.719967">
        <ele>512.0</ele>
        <time>2011-02-22T18:27:56Z</time>
      </trkpt>
      <trkpt lon="35.07713" lat="32.719828">
        <ele>513.0</ele>
        <time>2011-02-22T18:28:03Z</time>
      </trkpt>
      <trkpt lon="35.077162" lat="32.719764">
        <ele>514.0</ele>
        <time>2011-02-22T18:28:06Z</time>
      </trkpt>
      <trkpt lon="35.077189" lat="32.719699">
        <ele>515.0</ele>
        <time>2011-02-22T18:28:09Z</time>
      </trkpt>
      <trkpt lon="35.077195" lat="32.719565">
        <ele>516.0</ele>
        <time>2011-02-22T18:28:15Z</time>
      </trkpt>
      <trkpt lon="35.0772" lat="32.719485">
        <ele>516.0</ele>
        <time>2011-02-22T18:28:19Z</time>
      </trkpt>
      <trkpt lon="35.077189" lat="32.719404">
        <ele>515.0</ele>
        <time>2011-02-22T18:28:23Z</time>
      </trkpt>
      <trkpt lon="35.077195" lat="32.719334">
        <ele>517.0</ele>
        <time>2011-02-22T18:28:26Z</time>
      </trkpt>
      <trkpt lon="35.077216" lat="32.719265">
        <ele>517.0</ele>
        <time>2011-02-22T18:28:29Z</time>
      </trkpt>
      <trkpt lon="35.077216" lat="32.719114">
        <ele>517.0</ele>
        <time>2011-02-22T18:28:35Z</time>
      </trkpt>
      <trkpt lon="35.077221" lat="32.719034">
        <ele>516.0</ele>
        <time>2011-02-22T18:28:38Z</time>
      </trkpt>
      <trkpt lon="35.077205" lat="32.718964">
        <ele>516.0</ele>
        <time>2011-02-22T18:28:41Z</time>
      </trkpt>
      <trkpt lon="35.077178" lat="32.718878">
        <ele>515.0</ele>
        <time>2011-02-22T18:28:46Z</time>
      </trkpt>
      <trkpt lon="35.077184" lat="32.718803">
        <ele>515.0</ele>
        <time>2011-02-22T18:28:49Z</time>
      </trkpt>
      <trkpt lon="35.077205" lat="32.718734">
        <ele>514.0</ele>
        <time>2011-02-22T18:28:52Z</time>
      </trkpt>
      <trkpt lon="35.077211" lat="32.718664">
        <ele>514.0</ele>
        <time>2011-02-22T18:28:56Z</time>
      </trkpt>
      <trkpt lon="35.0772" lat="32.718589">
        <ele>514.0</ele>
        <time>2011-02-22T18:29:02Z</time>
      </trkpt>
      <trkpt lon="35.0772" lat="32.718589">
        <time>2011-02-22T18:29:14Z</time>
      </trkpt>
    </trkseg>
    <trkseg>
      <trkpt lon="35.0772" lat="32.718589">
        <time>2011-02-22T18:49:32Z</time>
      </trkpt>
      <trkpt lon="35.060747" lat="32.736179">
        <ele>394.0</ele>
        <time>2011-02-22T18:49:42Z</time>
      </trkpt>
      <trkpt lon="35.060779" lat="32.736248">
        <ele>394.0</ele>
        <time>2011-02-22T18:49:46Z</time>
      </trkpt>
      <trkpt lon="35.060779" lat="32.736313">
        <ele>394.0</ele>
        <time>2011-02-22T18:49:49Z</time>
      </trkpt>
      <trkpt lon="35.060801" lat="32.736388">
        <ele>396.0</ele>
        <time>2011-02-22T18:49:53Z</time>
      </trkpt>
      <trkpt lon="35.060817" lat="32.736458">
        <ele>396.0</ele>
        <time>2011-02-22T18:49:56Z</time>
      </trkpt>
      <trkpt lon="35.060774" lat="32.736597">
        <ele>395.0</ele>
        <time>2011-02-22T18:50:02Z</time>
      </trkpt>
      <trkpt lon="35.060731" lat="32.736726">
        <ele>396.0</ele>
        <time>2011-02-22T18:50:10Z</time>
      </trkpt>
      <trkpt lon="35.060704" lat="32.736806">
        <ele>396.0</ele>
        <time>2011-02-22T18:50:14Z</time>
      </trkpt>
      <trkpt lon="35.060672" lat="32.736865">
        <ele>396.0</ele>
        <time>2011-02-22T18:50:17Z</time>
      </trkpt>
      <trkpt lon="35.060645" lat="32.736924">
        <ele>397.0</ele>
        <time>2011-02-22T18:50:20Z</time>
      </trkpt>
      <trkpt lon="35.060581" lat="32.737042">
        <ele>397.0</ele>
        <time>2011-02-22T18:50:26Z</time>
      </trkpt>
      <trkpt lon="35.060527" lat="32.737096">
        <ele>397.0</ele>
        <time>2011-02-22T18:50:29Z</time>
      </trkpt>
      <trkpt lon="35.060458" lat="32.73716">
        <ele>397.0</ele>
        <time>2011-02-22T18:50:32Z</time>
      </trkpt>
      <trkpt lon="35.060356" lat="32.737289">
        <ele>396.0</ele>
        <time>2011-02-22T18:50:37Z</time>
      </trkpt>
      <trkpt lon="35.060227" lat="32.737412">
        <ele>395.0</ele>
        <time>2011-02-22T18:50:42Z</time>
      </trkpt>
      <trkpt lon="35.060146" lat="32.737482">
        <ele>393.0</ele>
        <time>2011-02-22T18:50:45Z</time>
      </trkpt>
      <trkpt lon="35.06005" lat="32.737589">
        <ele>393.0</ele>
        <time>2011-02-22T18:50:49Z</time>
      </trkpt>
      <trkpt lon="35.059948" lat="32.737707">
        <ele>394.0</ele>
        <time>2011-02-22T18:50:53Z</time>
      </trkpt>
      <trkpt lon="35.059825" lat="32.737847">
        <ele>393.0</ele>
        <time>2011-02-22T18:50:57Z</time>
      </trkpt>
      <trkpt lon="35.05969" lat="32.737981">
        <ele>393.0</ele>
        <time>2011-02-22T18:51:01Z</time>
      </trkpt>
      <trkpt lon="35.059556" lat="32.738126">
        <ele>393.0</ele>
        <time>2011-02-22T18:51:05Z</time>
      </trkpt>
      <trkpt lon="35.059336" lat="32.73834">
        <ele>391.0</ele>
        <time>2011-02-22T18:51:10Z</time>
      </trkpt>
      <trkpt lon="35.05931" lat="32.738512">
        <ele>391.0</ele>
        <time>2011-02-22T18:51:14Z</time>
      </trkpt>
      <trkpt lon="35.059358" lat="32.738652">
        <ele>392.0</ele>
        <time>2011-02-22T18:51:18Z</time>
      </trkpt>
      <trkpt lon="35.059395" lat="32.738807">
        <ele>392.0</ele>
        <time>2011-02-22T18:51:22Z</time>
      </trkpt>
      <trkpt lon="35.059465" lat="32.738979">
        <ele>391.0</ele>
        <time>2011-02-22T18:51:26Z</time>
      </trkpt>
      <trkpt lon="35.059551" lat="32.739156">
        <ele>391.0</ele>
        <time>2011-02-22T18:51:30Z</time>
      </trkpt>
      <trkpt lon="35.059642" lat="32.739333">
        <ele>391.0</ele>
        <time>2011-02-22T18:51:34Z</time>
      </trkpt>
      <trkpt lon="35.05969" lat="32.739488">
        <ele>392.0</ele>
        <time>2011-02-22T18:51:38Z</time>
      </trkpt>
      <trkpt lon="35.05968" lat="32.739633">
        <ele>393.0</ele>
        <time>2011-02-22T18:51:42Z</time>
      </trkpt>
      <trkpt lon="35.059631" lat="32.739789">
        <ele>392.0</ele>
        <time>2011-02-22T18:51:46Z</time>
      </trkpt>
      <trkpt lon="35.059546" lat="32.739928">
        <ele>392.0</ele>
        <time>2011-02-22T18:51:50Z</time>
      </trkpt>
      <trkpt lon="35.059406" lat="32.740052">
        <ele>392.0</ele>
        <time>2011-02-22T18:51:54Z</time>
      </trkpt>
      <trkpt lon="35.059256" lat="32.740138">
        <ele>392.0</ele>
        <time>2011-02-22T18:51:58Z</time>
      </trkpt>
      <trkpt lon="35.059095" lat="32.740191">
        <ele>392.0</ele>
        <time>2011-02-22T18:52:02Z</time>
      </trkpt>
      <trkpt lon="35.058907" lat="32.74024">
        <ele>390.0</ele>
        <time>2011-02-22T18:52:06Z</time>
      </trkpt>
      <trkpt lon="35.058811" lat="32.740341">
        <ele>390.0</ele>
        <time>2011-02-22T18:52:10Z</time>
      </trkpt>
      <trkpt lon="35.058961" lat="32.740502">
        <ele>391.0</ele>
        <time>2011-02-22T18:52:14Z</time>
      </trkpt>
      <trkpt lon="35.059068" lat="32.740636">
        <ele>391.0</ele>
        <time>2011-02-22T18:52:18Z</time>
      </trkpt>
      <trkpt lon="35.059149" lat="32.740787">
        <ele>392.0</ele>
        <time>2011-02-22T18:52:22Z</time>
      </trkpt>
      <trkpt lon="35.059186" lat="32.740969">
        <ele>393.0</ele>
        <time>2011-02-22T18:52:26Z</time>
      </trkpt>
      <trkpt lon="35.059267" lat="32.74113">
        <ele>393.0</ele>
        <time>2011-02-22T18:52:30Z</time>
      </trkpt>
      <trkpt lon="35.059422" lat="32.741248">
        <ele>393.0</ele>
        <time>2011-02-22T18:52:34Z</time>
      </trkpt>
      <trkpt lon="35.059572" lat="32.741366">
        <ele>394.0</ele>
        <time>2011-02-22T18:52:38Z</time>
      </trkpt>
      <trkpt lon="35.059669" lat="32.741516">
        <ele>394.0</ele>
        <time>2011-02-22T18:52:42Z</time>
      </trkpt>
      <trkpt lon="35.059707" lat="32.741586">
        <ele>394.0</ele>
        <time>2011-02-22T18:52:44Z</time>
      </trkpt>
      <trkpt lon="35.05976" lat="32.741752">
        <ele>395.0</ele>
        <time>2011-02-22T18:52:50Z</time>
      </trkpt>
      <trkpt lon="35.059744" lat="32.741881">
        <ele>396.0</ele>
        <time>2011-02-22T18:52:54Z</time>
      </trkpt>
      <trkpt lon="35.059712" lat="32.74202">
        <ele>397.0</ele>
        <time>2011-02-22T18:52:58Z</time>
      </trkpt>
      <trkpt lon="35.05968" lat="32.742096">
        <ele>398.0</ele>
        <time>2011-02-22T18:53:01Z</time>
      </trkpt>
      <trkpt lon="35.059631" lat="32.742149">
        <ele>398.0</ele>
        <time>2011-02-22T18:53:04Z</time>
      </trkpt>
      <trkpt lon="35.059562" lat="32.742192">
        <ele>398.0</ele>
        <time>2011-02-22T18:53:07Z</time>
      </trkpt>
      <trkpt lon="35.059497" lat="32.74224">
        <ele>399.0</ele>
        <time>2011-02-22T18:53:11Z</time>
      </trkpt>
      <trkpt lon="35.059444" lat="32.742305">
        <ele>399.0</ele>
        <time>2011-02-22T18:53:15Z</time>
      </trkpt>
      <trkpt lon="35.059385" lat="32.742364">
        <ele>399.0</ele>
        <time>2011-02-22T18:53:19Z</time>
      </trkpt>
      <trkpt lon="35.059342" lat="32.742417">
        <ele>399.0</ele>
        <time>2011-02-22T18:53:23Z</time>
      </trkpt>
      <trkpt lon="35.059299" lat="32.742482">
        <ele>400.0</ele>
        <time>2011-02-22T18:53:27Z</time>
      </trkpt>
      <trkpt lon="35.059251" lat="32.742541">
        <ele>400.0</ele>
        <time>2011-02-22T18:53:31Z</time>
      </trkpt>
      <trkpt lon="35.059202" lat="32.742611">
        <ele>399.0</ele>
        <time>2011-02-22T18:53:35Z</time>
      </trkpt>
      <trkpt lon="35.059154" lat="32.74267">
        <ele>399.0</ele>
        <time>2011-02-22T18:53:39Z</time>
      </trkpt>
      <trkpt lon="35.059154" lat="32.74267">
        <time>2011-02-22T18:53:50Z</time>
      </trkpt>
    </trkseg>
    <trkseg>
      <trkpt lon="35.059154" lat="32.74267">
        <time>2011-02-22T18:53:59Z</time>
      </trkpt>
      <trkpt lon="35.059154" lat="32.74267">
        <time>2011-02-22T18:54:11Z</time>
      </trkpt>
    </trkseg>
    <trkseg>
      <trkpt lon="35.059154" lat="32.74267">
        <time>2011-02-22T19:00:48Z</time>
      </trkpt>
      <trkpt lon="35.058929" lat="32.742868">
        <ele>399.0</ele>
        <time>2011-02-22T19:00:56Z</time>
      </trkpt>
      <trkpt lon="35.058875" lat="32.742922">
        <ele>400.0</ele>
        <time>2011-02-22T19:01:00Z</time>
      </trkpt>
      <trkpt lon="35.058827" lat="32.742981">
        <ele>401.0</ele>
        <time>2011-02-22T19:01:04Z</time>
      </trkpt>
      <trkpt lon="35.058795" lat="32.74304">
        <ele>402.0</ele>
        <time>2011-02-22T19:01:07Z</time>
      </trkpt>
      <trkpt lon="35.058746" lat="32.743104">
        <ele>402.0</ele>
        <time>2011-02-22T19:01:10Z</time>
      </trkpt>
      <trkpt lon="35.058644" lat="32.743233">
        <ele>404.0</ele>
        <time>2011-02-22T19:01:17Z</time>
      </trkpt>
      <trkpt lon="35.058585" lat="32.743292">
        <ele>404.0</ele>
        <time>2011-02-22T19:01:20Z</time>
      </trkpt>
      <trkpt lon="35.058398" lat="32.743469">
        <ele>404.0</ele>
        <time>2011-02-22T19:01:30Z</time>
      </trkpt>
      <trkpt lon="35.058333" lat="32.743523">
        <ele>404.0</ele>
        <time>2011-02-22T19:01:32Z</time>
      </trkpt>
      <trkpt lon="35.058151" lat="32.74371">
        <ele>405.0</ele>
        <time>2011-02-22T19:01:42Z</time>
      </trkpt>
      <trkpt lon="35.058092" lat="32.743775">
        <ele>405.0</ele>
        <time>2011-02-22T19:01:45Z</time>
      </trkpt>
      <trkpt lon="35.058033" lat="32.743839">
        <ele>403.0</ele>
        <time>2011-02-22T19:01:48Z</time>
      </trkpt>
      <trkpt lon="35.057904" lat="32.743957">
        <ele>403.0</ele>
        <time>2011-02-22T19:01:55Z</time>
      </trkpt>
      <trkpt lon="35.057791" lat="32.744086">
        <ele>403.0</ele>
        <time>2011-02-22T19:02:01Z</time>
      </trkpt>
      <trkpt lon="35.057722" lat="32.744145">
        <ele>403.0</ele>
        <time>2011-02-22T19:02:04Z</time>
      </trkpt>
      <trkpt lon="35.057593" lat="32.744241">
        <ele>403.0</ele>
        <time>2011-02-22T19:02:09Z</time>
      </trkpt>
      <trkpt lon="35.057539" lat="32.74429">
        <ele>403.0</ele>
        <time>2011-02-22T19:02:11Z</time>
      </trkpt>
      <trkpt lon="35.057421" lat="32.744424">
        <ele>403.0</ele>
        <time>2011-02-22T19:02:17Z</time>
      </trkpt>
      <trkpt lon="35.057314" lat="32.744526">
        <ele>404.0</ele>
        <time>2011-02-22T19:02:21Z</time>
      </trkpt>
      <trkpt lon="35.057196" lat="32.744633">
        <ele>403.0</ele>
        <time>2011-02-22T19:02:25Z</time>
      </trkpt>
      <trkpt lon="35.057094" lat="32.74473">
        <ele>404.0</ele>
        <time>2011-02-22T19:02:29Z</time>
      </trkpt>
      <trkpt lon="35.056987" lat="32.744826">
        <ele>403.0</ele>
        <time>2011-02-22T19:02:33Z</time>
      </trkpt>
      <trkpt lon="35.056853" lat="32.744944">
        <ele>406.0</ele>
        <time>2011-02-22T19:02:38Z</time>
      </trkpt>
      <trkpt lon="35.056756" lat="32.745046">
        <ele>407.0</ele>
        <time>2011-02-22T19:02:42Z</time>
      </trkpt>
      <trkpt lon="35.056692" lat="32.745121">
        <ele>408.0</ele>
        <time>2011-02-22T19:02:45Z</time>
      </trkpt>
      <trkpt lon="35.056627" lat="32.745196">
        <ele>408.0</ele>
        <time>2011-02-22T19:02:48Z</time>
      </trkpt>
      <trkpt lon="35.056531" lat="32.745336">
        <ele>411.0</ele>
        <time>2011-02-22T19:02:53Z</time>
      </trkpt>
      <trkpt lon="35.056434" lat="32.74547">
        <ele>412.0</ele>
        <time>2011-02-22T19:02:58Z</time>
      </trkpt>
      <trkpt lon="35.05637" lat="32.74554">
        <ele>412.0</ele>
        <time>2011-02-22T19:03:01Z</time>
      </trkpt>
      <trkpt lon="35.056306" lat="32.745615">
        <ele>412.0</ele>
        <time>2011-02-22T19:03:04Z</time>
      </trkpt>
      <trkpt lon="35.056193" lat="32.745765">
        <ele>411.0</ele>
        <time>2011-02-22T19:03:10Z</time>
      </trkpt>
      <trkpt lon="35.056118" lat="32.745883">
        <ele>409.0</ele>
        <time>2011-02-22T19:03:14Z</time>
      </trkpt>
      <trkpt lon="35.056069" lat="32.745953">
        <ele>409.0</ele>
        <time>2011-02-22T19:03:17Z</time>
      </trkpt>
      <trkpt lon="35.056005" lat="32.74599">
        <ele>407.0</ele>
        <time>2011-02-22T19:03:21Z</time>
      </trkpt>
      <trkpt lon="35.056032" lat="32.745926">
        <ele>409.0</ele>
        <time>2011-02-22T19:03:27Z</time>
      </trkpt>
      <trkpt lon="35.056059" lat="32.745851">
        <ele>409.0</ele>
        <time>2011-02-22T19:03:32Z</time>
      </trkpt>
      <trkpt lon="35.056096" lat="32.74577">
        <ele>410.0</ele>
        <time>2011-02-22T19:03:36Z</time>
      </trkpt>
      <trkpt lon="35.056129" lat="32.7457">
        <ele>410.0</ele>
        <time>2011-02-22T19:03:40Z</time>
      </trkpt>
      <trkpt lon="35.056166" lat="32.745636">
        <ele>412.0</ele>
        <time>2011-02-22T19:03:45Z</time>
      </trkpt>
      <trkpt lon="35.056247" lat="32.745395">
        <ele>413.0</ele>
        <time>2011-02-22T19:03:58Z</time>
      </trkpt>
      <trkpt lon="35.056247" lat="32.745304">
        <ele>413.0</ele>
        <time>2011-02-22T19:04:01Z</time>
      </trkpt>
      <trkpt lon="35.056252" lat="32.745234">
        <ele>413.0</ele>
        <time>2011-02-22T19:04:04Z</time>
      </trkpt>
      <trkpt lon="35.056257" lat="32.745169">
        <ele>414.0</ele>
        <time>2011-02-22T19:04:07Z</time>
      </trkpt>
      <trkpt lon="35.056263" lat="32.745035">
        <ele>414.0</ele>
        <time>2011-02-22T19:04:16Z</time>
      </trkpt>
      <trkpt lon="35.056284" lat="32.744949">
        <ele>417.0</ele>
        <time>2011-02-22T19:04:20Z</time>
      </trkpt>
      <trkpt lon="35.056289" lat="32.744821">
        <ele>419.0</ele>
        <time>2011-02-22T19:04:26Z</time>
      </trkpt>
      <trkpt lon="35.056311" lat="32.744746">
        <ele>420.0</ele>
        <time>2011-02-22T19:04:29Z</time>
      </trkpt>
      <trkpt lon="35.056348" lat="32.744681">
        <ele>420.0</ele>
        <time>2011-02-22T19:04:32Z</time>
      </trkpt>
      <trkpt lon="35.056375" lat="32.744606">
        <ele>422.0</ele>
        <time>2011-02-22T19:04:36Z</time>
      </trkpt>
      <trkpt lon="35.056391" lat="32.744542">
        <ele>421.0</ele>
        <time>2011-02-22T19:04:40Z</time>
      </trkpt>
      <trkpt lon="35.056418" lat="32.744483">
        <ele>422.0</ele>
        <time>2011-02-22T19:04:44Z</time>
      </trkpt>
      <trkpt lon="35.056445" lat="32.744413">
        <ele>422.0</ele>
        <time>2011-02-22T19:04:48Z</time>
      </trkpt>
      <trkpt lon="35.056461" lat="32.744349">
        <ele>422.0</ele>
        <time>2011-02-22T19:04:52Z</time>
      </trkpt>
      <trkpt lon="35.056488" lat="32.744284">
        <ele>423.0</ele>
        <time>2011-02-22T19:04:57Z</time>
      </trkpt>
      <trkpt lon="35.056509" lat="32.744215">
        <ele>425.0</ele>
        <time>2011-02-22T19:05:02Z</time>
      </trkpt>
      <trkpt lon="35.056531" lat="32.744139">
        <ele>426.0</ele>
        <time>2011-02-22T19:05:06Z</time>
      </trkpt>
      <trkpt lon="35.056531" lat="32.744064">
        <ele>427.0</ele>
        <time>2011-02-22T19:05:10Z</time>
      </trkpt>
      <trkpt lon="35.056531" lat="32.743989">
        <ele>426.0</ele>
        <time>2011-02-22T19:05:15Z</time>
      </trkpt>
      <trkpt lon="35.056547" lat="32.743925">
        <ele>427.0</ele>
        <time>2011-02-22T19:05:23Z</time>
      </trkpt>
      <trkpt lon="35.056542" lat="32.74386">
        <ele>426.0</ele>
        <time>2011-02-22T19:05:28Z</time>
      </trkpt>
      <trkpt lon="35.056558" lat="32.743716">
        <ele>429.0</ele>
        <time>2011-02-22T19:05:37Z</time>
      </trkpt>
      <trkpt lon="35.056584" lat="32.743582">
        <ele>429.0</ele>
        <time>2011-02-22T19:05:45Z</time>
      </trkpt>
      <trkpt lon="35.056584" lat="32.743517">
        <ele>429.0</ele>
        <time>2011-02-22T19:05:50Z</time>
      </trkpt>
      <trkpt lon="35.056595" lat="32.743447">
        <ele>428.0</ele>
        <time>2011-02-22T19:05:56Z</time>
      </trkpt>
      <trkpt lon="35.056606" lat="32.743378">
        <ele>430.0</ele>
        <time>2011-02-22T19:05:59Z</time>
      </trkpt>
      <trkpt lon="35.056617" lat="32.743308">
        <ele>431.0</ele>
        <time>2011-02-22T19:06:05Z</time>
      </trkpt>
      <trkpt lon="35.056633" lat="32.743238">
        <ele>432.0</ele>
        <time>2011-02-22T19:06:12Z</time>
      </trkpt>
      <trkpt lon="35.056633" lat="32.743174">
        <ele>432.0</ele>
        <time>2011-02-22T19:06:17Z</time>
      </trkpt>
      <trkpt lon="35.056606" lat="32.743109">
        <ele>432.0</ele>
        <time>2011-02-22T19:06:21Z</time>
      </trkpt>
      <trkpt lon="35.05652" lat="32.743104">
        <ele>435.0</ele>
        <time>2011-02-22T19:06:26Z</time>
      </trkpt>
      <trkpt lon="35.05652" lat="32.743104">
        <time>2011-02-22T19:06:37Z</time>
      </trkpt>
    </trkseg>
    <trkseg>
      <trkpt lon="35.05652" lat="32.743104">
        <time>2011-02-22T19:06:38Z</time>
      </trkpt>
      <trkpt lon="35.056386" lat="32.74327">
        <ele>435.0</ele>
        <time>2011-02-22T19:06:42Z</time>
      </trkpt>
      <trkpt lon="35.056279" lat="32.743394">
        <ele>435.0</ele>
        <time>2011-02-22T19:06:51Z</time>
      </trkpt>
      <trkpt lon="35.056214" lat="32.743458">
        <ele>440.0</ele>
        <time>2011-02-22T19:06:56Z</time>
      </trkpt>
      <trkpt lon="35.056182" lat="32.743533">
        <ele>439.0</ele>
        <time>2011-02-22T19:07:00Z</time>
      </trkpt>
      <trkpt lon="35.056139" lat="32.743592">
        <ele>438.0</ele>
        <time>2011-02-22T19:07:04Z</time>
      </trkpt>
      <trkpt lon="35.056059" lat="32.743716">
        <ele>437.0</ele>
        <time>2011-02-22T19:07:10Z</time>
      </trkpt>
      <trkpt lon="35.05601" lat="32.743785">
        <ele>439.0</ele>
        <time>2011-02-22T19:07:14Z</time>
      </trkpt>
      <trkpt lon="35.055957" lat="32.743834">
        <ele>440.0</ele>
        <time>2011-02-22T19:07:17Z</time>
      </trkpt>
      <trkpt lon="35.055898" lat="32.743893">
        <ele>440.0</ele>
        <time>2011-02-22T19:07:21Z</time>
      </trkpt>
      <trkpt lon="35.05585" lat="32.743946">
        <ele>441.0</ele>
        <time>2011-02-22T19:07:24Z</time>
      </trkpt>
      <trkpt lon="35.05578" lat="32.744005">
        <ele>440.0</ele>
        <time>2011-02-22T19:07:28Z</time>
      </trkpt>
      <trkpt lon="35.05571" lat="32.744048">
        <ele>442.0</ele>
        <time>2011-02-22T19:07:32Z</time>
      </trkpt>
      <trkpt lon="35.055587" lat="32.74415">
        <ele>443.0</ele>
        <time>2011-02-22T19:07:40Z</time>
      </trkpt>
      <trkpt lon="35.055522" lat="32.744198">
        <ele>445.0</ele>
        <time>2011-02-22T19:07:44Z</time>
      </trkpt>
      <trkpt lon="35.055463" lat="32.744241">
        <ele>448.0</ele>
        <time>2011-02-22T19:07:48Z</time>
      </trkpt>
      <trkpt lon="35.055351" lat="32.744343">
        <ele>448.0</ele>
        <time>2011-02-22T19:07:54Z</time>
      </trkpt>
      <trkpt lon="35.055302" lat="32.744397">
        <ele>447.0</ele>
        <time>2011-02-22T19:07:57Z</time>
      </trkpt>
      <trkpt lon="35.055147" lat="32.74451">
        <ele>447.0</ele>
        <time>2011-02-22T19:08:05Z</time>
      </trkpt>
      <trkpt lon="35.055109" lat="32.744569">
        <ele>448.0</ele>
        <time>2011-02-22T19:08:08Z</time>
      </trkpt>
      <trkpt lon="35.054997" lat="32.744676">
        <ele>452.0</ele>
        <time>2011-02-22T19:08:15Z</time>
      </trkpt>
      <trkpt lon="35.054873" lat="32.744767">
        <ele>451.0</ele>
        <time>2011-02-22T19:08:21Z</time>
      </trkpt>
      <trkpt lon="35.054744" lat="32.744864">
        <ele>451.0</ele>
        <time>2011-02-22T19:08:28Z</time>
      </trkpt>
      <trkpt lon="35.054616" lat="32.744933">
        <ele>451.0</ele>
        <time>2011-02-22T19:08:34Z</time>
      </trkpt>
      <trkpt lon="35.054557" lat="32.744976">
        <ele>452.0</ele>
        <time>2011-02-22T19:08:37Z</time>
      </trkpt>
      <trkpt lon="35.054514" lat="32.74503">
        <ele>453.0</ele>
        <time>2011-02-22T19:08:41Z</time>
      </trkpt>
      <trkpt lon="35.054444" lat="32.745062">
        <ele>453.0</ele>
        <time>2011-02-22T19:08:45Z</time>
      </trkpt>
      <trkpt lon="35.054369" lat="32.745084">
        <ele>454.0</ele>
        <time>2011-02-22T19:08:49Z</time>
      </trkpt>
      <trkpt lon="35.054289" lat="32.74511">
        <ele>456.0</ele>
        <time>2011-02-22T19:08:53Z</time>
      </trkpt>
      <trkpt lon="35.054203" lat="32.745132">
        <ele>456.0</ele>
        <time>2011-02-22T19:08:57Z</time>
      </trkpt>
      <trkpt lon="35.054111" lat="32.745159">
        <ele>457.0</ele>
        <time>2011-02-22T19:09:02Z</time>
      </trkpt>
      <trkpt lon="35.054058" lat="32.745207">
        <ele>458.0</ele>
        <time>2011-02-22T19:09:07Z</time>
      </trkpt>
      <trkpt lon="35.054031" lat="32.745271">
        <ele>460.0</ele>
        <time>2011-02-22T19:09:13Z</time>
      </trkpt>
      <trkpt lon="35.054004" lat="32.74533">
        <ele>463.0</ele>
        <time>2011-02-22T19:09:17Z</time>
      </trkpt>
      <trkpt lon="35.053983" lat="32.745395">
        <ele>464.0</ele>
        <time>2011-02-22T19:09:22Z</time>
      </trkpt>
      <trkpt lon="35.053972" lat="32.745459">
        <ele>465.0</ele>
        <time>2011-02-22T19:09:26Z</time>
      </trkpt>
      <trkpt lon="35.053972" lat="32.745523">
        <ele>466.0</ele>
        <time>2011-02-22T19:09:30Z</time>
      </trkpt>
      <trkpt lon="35.053972" lat="32.745588">
        <ele>465.0</ele>
        <time>2011-02-22T19:09:34Z</time>
      </trkpt>
      <trkpt lon="35.053972" lat="32.745588">
        <time>2011-02-22T19:09:46Z</time>
      </trkpt>
    </trkseg>
    <trkseg>
      <trkpt lon="35.053972" lat="32.745588">
        <time>2011-02-22T19:45:27Z</time>
      </trkpt>
    </trkseg>
  </trk>
</gpx>